<?xml version="1.0" encoding="UTF-8" standalone="no" ?>
<gpx xmlns="http://www.topografix.com/GPX/1/1" xmlns:xsi="http://www.w3.org/2001/XMLSchema-instance" xsi:schemaLocation="http://www.topografix.com/GPX/1/1 http://www.topografix.com/GPX/1/1/gpx.xsd" version="1.1" creator="VisuGPX - https://www.visugpx.com">
  <metadata>
    <name>Sainte-Lucie-de-Tallano </name>
    <desc><![CDATA[Village de l'huile d'olives ]]></desc>
  </metadata>
  <trk>
    <name><![CDATA[Sainte-Lucie-de-Tallano _1]]></name>
    <trkseg>
      <trkpt lat="41.69552" lon="9.06568">
        <ele>458.8</ele>
        <time>2024-08-05T10:13:06Z</time>
      </trkpt>
      <trkpt lat="41.69547" lon="9.06573">
        <ele>458.8</ele>
        <time>2024-08-05T10:13:10Z</time>
      </trkpt>
      <trkpt lat="41.69545" lon="9.06574">
        <ele>459.4</ele>
        <time>2024-08-05T10:13:16Z</time>
      </trkpt>
      <trkpt lat="41.6955" lon="9.06562">
        <ele>458.8</ele>
        <time>2024-08-05T10:13:24Z</time>
      </trkpt>
      <trkpt lat="41.6955" lon="9.06561">
        <ele>458.8</ele>
        <time>2024-08-05T10:13:25Z</time>
      </trkpt>
      <trkpt lat="41.69551" lon="9.06558">
        <ele>459.8</ele>
        <time>2024-08-05T10:13:36Z</time>
      </trkpt>
      <trkpt lat="41.69551" lon="9.06559">
        <ele>458.8</ele>
        <time>2024-08-05T10:13:51Z</time>
      </trkpt>
      <trkpt lat="41.69552" lon="9.0656">
        <ele>458.8</ele>
        <time>2024-08-05T10:13:54Z</time>
      </trkpt>
      <trkpt lat="41.69534" lon="9.06543">
        <ele>459.2</ele>
        <time>2024-08-05T10:14:07Z</time>
      </trkpt>
      <trkpt lat="41.69533" lon="9.06543">
        <ele>459.8</ele>
        <time>2024-08-05T10:14:12Z</time>
      </trkpt>
      <trkpt lat="41.69533" lon="9.06544">
        <ele>460.2</ele>
        <time>2024-08-05T10:14:26Z</time>
      </trkpt>
      <trkpt lat="41.69541" lon="9.0655">
        <ele>459.6</ele>
        <time>2024-08-05T10:14:44Z</time>
      </trkpt>
      <trkpt lat="41.69543" lon="9.06547">
        <ele>459.2</ele>
        <time>2024-08-05T10:15:02Z</time>
      </trkpt>
      <trkpt lat="41.69542" lon="9.06547">
        <ele>459.6</ele>
        <time>2024-08-05T10:15:16Z</time>
      </trkpt>
      <trkpt lat="41.69544" lon="9.0655">
        <ele>459.6</ele>
        <time>2024-08-05T10:15:33Z</time>
      </trkpt>
      <trkpt lat="41.69545" lon="9.06552">
        <ele>461</ele>
        <time>2024-08-05T10:15:38Z</time>
      </trkpt>
      <trkpt lat="41.6954" lon="9.06552">
        <ele>459.6</ele>
        <time>2024-08-05T10:15:47Z</time>
      </trkpt>
      <trkpt lat="41.69528" lon="9.06557">
        <ele>459</ele>
        <time>2024-08-05T10:16:01Z</time>
      </trkpt>
      <trkpt lat="41.69526" lon="9.0656">
        <ele>459</ele>
        <time>2024-08-05T10:16:05Z</time>
      </trkpt>
      <trkpt lat="41.69523" lon="9.06572">
        <ele>459.4</ele>
        <time>2024-08-05T10:16:15Z</time>
      </trkpt>
      <trkpt lat="41.69522" lon="9.06577">
        <ele>459.6</ele>
        <time>2024-08-05T10:16:18Z</time>
      </trkpt>
      <trkpt lat="41.69513" lon="9.06598">
        <ele>460.2</ele>
        <time>2024-08-05T10:16:31Z</time>
      </trkpt>
      <trkpt lat="41.69511" lon="9.06601">
        <ele>460.6</ele>
        <time>2024-08-05T10:16:34Z</time>
      </trkpt>
      <trkpt lat="41.69503" lon="9.06616">
        <ele>461.4</ele>
        <time>2024-08-05T10:16:48Z</time>
      </trkpt>
      <trkpt lat="41.69501" lon="9.06621">
        <ele>461.6</ele>
        <time>2024-08-05T10:16:52Z</time>
      </trkpt>
      <trkpt lat="41.69497" lon="9.06632">
        <ele>462</ele>
        <time>2024-08-05T10:17:03Z</time>
      </trkpt>
      <trkpt lat="41.69495" lon="9.06641">
        <ele>462.8</ele>
        <time>2024-08-05T10:17:10Z</time>
      </trkpt>
      <trkpt lat="41.69494" lon="9.0665">
        <ele>463.6</ele>
        <time>2024-08-05T10:17:18Z</time>
      </trkpt>
      <trkpt lat="41.69495" lon="9.06652">
        <ele>463.6</ele>
        <time>2024-08-05T10:17:20Z</time>
      </trkpt>
      <trkpt lat="41.69495" lon="9.06658">
        <ele>463.8</ele>
        <time>2024-08-05T10:17:24Z</time>
      </trkpt>
      <trkpt lat="41.69495" lon="9.0666">
        <ele>464.2</ele>
        <time>2024-08-05T10:17:25Z</time>
      </trkpt>
      <trkpt lat="41.69496" lon="9.06664">
        <ele>464.4</ele>
        <time>2024-08-05T10:17:28Z</time>
      </trkpt>
      <trkpt lat="41.69498" lon="9.06674">
        <ele>464.8</ele>
        <time>2024-08-05T10:17:35Z</time>
      </trkpt>
      <trkpt lat="41.69501" lon="9.06687">
        <ele>466</ele>
        <time>2024-08-05T10:17:45Z</time>
      </trkpt>
      <trkpt lat="41.69501" lon="9.06702">
        <ele>467</ele>
        <time>2024-08-05T10:17:56Z</time>
      </trkpt>
      <trkpt lat="41.69501" lon="9.06706">
        <ele>467.4</ele>
        <time>2024-08-05T10:18:00Z</time>
      </trkpt>
      <trkpt lat="41.69501" lon="9.0671">
        <ele>468</ele>
        <time>2024-08-05T10:18:05Z</time>
      </trkpt>
      <trkpt lat="41.69502" lon="9.06711">
        <ele>468</ele>
        <time>2024-08-05T10:18:07Z</time>
      </trkpt>
      <trkpt lat="41.69502" lon="9.06711">
        <ele>468.2</ele>
        <time>2024-08-05T10:18:08Z</time>
      </trkpt>
      <trkpt lat="41.69501" lon="9.06712">
        <ele>468.2</ele>
        <time>2024-08-05T10:18:10Z</time>
      </trkpt>
      <trkpt lat="41.695" lon="9.06705">
        <ele>468</ele>
        <time>2024-08-05T10:18:21Z</time>
      </trkpt>
      <trkpt lat="41.69501" lon="9.06702">
        <ele>467</ele>
        <time>2024-08-05T10:18:27Z</time>
      </trkpt>
      <trkpt lat="41.69501" lon="9.06701">
        <ele>466.8</ele>
        <time>2024-08-05T10:18:30Z</time>
      </trkpt>
      <trkpt lat="41.69502" lon="9.06695">
        <ele>466.8</ele>
        <time>2024-08-05T10:18:42Z</time>
      </trkpt>
      <trkpt lat="41.695" lon="9.06682">
        <ele>465.6</ele>
        <time>2024-08-05T10:18:51Z</time>
      </trkpt>
      <trkpt lat="41.69499" lon="9.06677">
        <ele>465.6</ele>
        <time>2024-08-05T10:18:55Z</time>
      </trkpt>
      <trkpt lat="41.69497" lon="9.06666">
        <ele>464.6</ele>
        <time>2024-08-05T10:19:05Z</time>
      </trkpt>
      <trkpt lat="41.69495" lon="9.06658">
        <ele>463.8</ele>
        <time>2024-08-05T10:19:12Z</time>
      </trkpt>
      <trkpt lat="41.69493" lon="9.06651">
        <ele>463.4</ele>
        <time>2024-08-05T10:19:19Z</time>
      </trkpt>
      <trkpt lat="41.6949" lon="9.06645">
        <ele>463</ele>
        <time>2024-08-05T10:19:26Z</time>
      </trkpt>
      <trkpt lat="41.69488" lon="9.06643">
        <ele>462.6</ele>
        <time>2024-08-05T10:19:28Z</time>
      </trkpt>
      <trkpt lat="41.69483" lon="9.06638">
        <ele>462.2</ele>
        <time>2024-08-05T10:19:35Z</time>
      </trkpt>
      <trkpt lat="41.69479" lon="9.06636">
        <ele>462.2</ele>
        <time>2024-08-05T10:19:39Z</time>
      </trkpt>
      <trkpt lat="41.69465" lon="9.06634">
        <ele>461.8</ele>
        <time>2024-08-05T10:19:55Z</time>
      </trkpt>
      <trkpt lat="41.6946" lon="9.06631">
        <ele>461.2</ele>
        <time>2024-08-05T10:20:04Z</time>
      </trkpt>
      <trkpt lat="41.69458" lon="9.06629">
        <ele>461.2</ele>
        <time>2024-08-05T10:20:12Z</time>
      </trkpt>
      <trkpt lat="41.69459" lon="9.06631">
        <ele>461</ele>
        <time>2024-08-05T10:20:27Z</time>
      </trkpt>
      <trkpt lat="41.69465" lon="9.06635">
        <ele>461.8</ele>
        <time>2024-08-05T10:20:41Z</time>
      </trkpt>
      <trkpt lat="41.69476" lon="9.06637">
        <ele>461.6</ele>
        <time>2024-08-05T10:20:57Z</time>
      </trkpt>
      <trkpt lat="41.69478" lon="9.06637">
        <ele>461.6</ele>
        <time>2024-08-05T10:20:59Z</time>
      </trkpt>
      <trkpt lat="41.69485" lon="9.06639">
        <ele>462.2</ele>
        <time>2024-08-05T10:21:06Z</time>
      </trkpt>
      <trkpt lat="41.69489" lon="9.06639">
        <ele>462.4</ele>
        <time>2024-08-05T10:21:10Z</time>
      </trkpt>
      <trkpt lat="41.69495" lon="9.06635">
        <ele>461.8</ele>
        <time>2024-08-05T10:21:19Z</time>
      </trkpt>
      <trkpt lat="41.69497" lon="9.06633">
        <ele>461.4</ele>
        <time>2024-08-05T10:21:24Z</time>
      </trkpt>
      <trkpt lat="41.69502" lon="9.06619">
        <ele>461.8</ele>
        <time>2024-08-05T10:21:35Z</time>
      </trkpt>
      <trkpt lat="41.69505" lon="9.0661">
        <ele>461.2</ele>
        <time>2024-08-05T10:21:42Z</time>
      </trkpt>
      <trkpt lat="41.6951" lon="9.06601">
        <ele>460.4</ele>
        <time>2024-08-05T10:21:49Z</time>
      </trkpt>
      <trkpt lat="41.69511" lon="9.066">
        <ele>460.2</ele>
        <time>2024-08-05T10:21:50Z</time>
      </trkpt>
      <trkpt lat="41.69519" lon="9.06585">
        <ele>460.2</ele>
        <time>2024-08-05T10:22:03Z</time>
      </trkpt>
      <trkpt lat="41.69524" lon="9.06569">
        <ele>459.6</ele>
        <time>2024-08-05T10:22:16Z</time>
      </trkpt>
      <trkpt lat="41.6953" lon="9.06557">
        <ele>459</ele>
        <time>2024-08-05T10:22:28Z</time>
      </trkpt>
      <trkpt lat="41.69532" lon="9.06555">
        <ele>459</ele>
        <time>2024-08-05T10:22:31Z</time>
      </trkpt>
      <trkpt lat="41.69541" lon="9.06559">
        <ele>459</ele>
        <time>2024-08-05T10:22:41Z</time>
      </trkpt>
      <trkpt lat="41.69541" lon="9.06559">
        <ele>459</ele>
        <time>2024-08-05T10:22:42Z</time>
      </trkpt>
      <trkpt lat="41.69543" lon="9.06559">
        <ele>458.8</ele>
        <time>2024-08-05T10:22:44Z</time>
      </trkpt>
      <trkpt lat="41.69556" lon="9.06566">
        <ele>458.4</ele>
        <time>2024-08-05T10:22:54Z</time>
      </trkpt>
      <trkpt lat="41.69558" lon="9.06568">
        <ele>458</ele>
        <time>2024-08-05T10:22:57Z</time>
      </trkpt>
      <trkpt lat="41.69559" lon="9.0657">
        <ele>458</ele>
        <time>2024-08-05T10:23:00Z</time>
      </trkpt>
      <trkpt lat="41.69559" lon="9.0657">
        <ele>458</ele>
        <time>2024-08-05T10:23:03Z</time>
      </trkpt>
      <trkpt lat="41.6956" lon="9.06572">
        <ele>458</ele>
        <time>2024-08-05T10:23:06Z</time>
      </trkpt>
      <trkpt lat="41.69564" lon="9.06581">
        <ele>457.8</ele>
        <time>2024-08-05T10:23:16Z</time>
      </trkpt>
      <trkpt lat="41.69567" lon="9.06582">
        <ele>457.6</ele>
        <time>2024-08-05T10:23:19Z</time>
      </trkpt>
      <trkpt lat="41.69568" lon="9.06587">
        <ele>457.6</ele>
        <time>2024-08-05T10:23:23Z</time>
      </trkpt>
      <trkpt lat="41.69569" lon="9.06594">
        <ele>457.4</ele>
        <time>2024-08-05T10:23:28Z</time>
      </trkpt>
      <trkpt lat="41.69568" lon="9.06605">
        <ele>457</ele>
        <time>2024-08-05T10:23:35Z</time>
      </trkpt>
      <trkpt lat="41.69566" lon="9.06617">
        <ele>456.8</ele>
        <time>2024-08-05T10:23:44Z</time>
      </trkpt>
      <trkpt lat="41.69559" lon="9.06633">
        <ele>456.6</ele>
        <time>2024-08-05T10:23:57Z</time>
      </trkpt>
      <trkpt lat="41.69553" lon="9.06644">
        <ele>456</ele>
        <time>2024-08-05T10:24:07Z</time>
      </trkpt>
      <trkpt lat="41.69552" lon="9.06649">
        <ele>455.8</ele>
        <time>2024-08-05T10:24:11Z</time>
      </trkpt>
      <trkpt lat="41.69549" lon="9.06673">
        <ele>455</ele>
        <time>2024-08-05T10:24:29Z</time>
      </trkpt>
      <trkpt lat="41.69549" lon="9.06674">
        <ele>455</ele>
        <time>2024-08-05T10:24:30Z</time>
      </trkpt>
      <trkpt lat="41.69554" lon="9.06687">
        <ele>454.8</ele>
        <time>2024-08-05T10:24:42Z</time>
      </trkpt>
      <trkpt lat="41.69564" lon="9.06699">
        <ele>454.4</ele>
        <time>2024-08-05T10:24:55Z</time>
      </trkpt>
      <trkpt lat="41.69572" lon="9.06694">
        <ele>454</ele>
        <time>2024-08-05T10:25:04Z</time>
      </trkpt>
      <trkpt lat="41.69573" lon="9.06692">
        <ele>454</ele>
        <time>2024-08-05T10:25:06Z</time>
      </trkpt>
      <trkpt lat="41.69577" lon="9.06683">
        <ele>453.2</ele>
        <time>2024-08-05T10:25:15Z</time>
      </trkpt>
      <trkpt lat="41.69581" lon="9.06677">
        <ele>453</ele>
        <time>2024-08-05T10:25:21Z</time>
      </trkpt>
      <trkpt lat="41.69587" lon="9.06669">
        <ele>452.4</ele>
        <time>2024-08-05T10:25:28Z</time>
      </trkpt>
      <trkpt lat="41.69595" lon="9.0666">
        <ele>452.2</ele>
        <time>2024-08-05T10:25:40Z</time>
      </trkpt>
      <trkpt lat="41.69598" lon="9.06657">
        <ele>451.8</ele>
        <time>2024-08-05T10:25:44Z</time>
      </trkpt>
      <trkpt lat="41.69605" lon="9.06654">
        <ele>450.8</ele>
        <time>2024-08-05T10:25:51Z</time>
      </trkpt>
      <trkpt lat="41.69606" lon="9.06652">
        <ele>450.8</ele>
        <time>2024-08-05T10:25:53Z</time>
      </trkpt>
      <trkpt lat="41.69617" lon="9.06644">
        <ele>450.2</ele>
        <time>2024-08-05T10:26:06Z</time>
      </trkpt>
      <trkpt lat="41.69619" lon="9.06642">
        <ele>449.6</ele>
        <time>2024-08-05T10:26:09Z</time>
      </trkpt>
      <trkpt lat="41.69622" lon="9.0664">
        <ele>449.6</ele>
        <time>2024-08-05T10:26:15Z</time>
      </trkpt>
      <trkpt lat="41.69624" lon="9.06639">
        <ele>449.6</ele>
        <time>2024-08-05T10:26:18Z</time>
      </trkpt>
      <trkpt lat="41.69633" lon="9.06627">
        <ele>448.8</ele>
        <time>2024-08-05T10:26:31Z</time>
      </trkpt>
      <trkpt lat="41.69636" lon="9.06626">
        <ele>448.6</ele>
        <time>2024-08-05T10:26:33Z</time>
      </trkpt>
      <trkpt lat="41.69644" lon="9.06618">
        <ele>447.8</ele>
        <time>2024-08-05T10:26:44Z</time>
      </trkpt>
      <trkpt lat="41.69647" lon="9.06615">
        <ele>447.6</ele>
        <time>2024-08-05T10:26:49Z</time>
      </trkpt>
      <trkpt lat="41.69653" lon="9.06611">
        <ele>446.8</ele>
        <time>2024-08-05T10:26:57Z</time>
      </trkpt>
      <trkpt lat="41.69659" lon="9.06603">
        <ele>446.6</ele>
        <time>2024-08-05T10:27:05Z</time>
      </trkpt>
      <trkpt lat="41.69664" lon="9.06598">
        <ele>445.8</ele>
        <time>2024-08-05T10:27:11Z</time>
      </trkpt>
      <trkpt lat="41.69668" lon="9.06594">
        <ele>445.4</ele>
        <time>2024-08-05T10:27:15Z</time>
      </trkpt>
      <trkpt lat="41.69675" lon="9.06584">
        <ele>444.8</ele>
        <time>2024-08-05T10:27:26Z</time>
      </trkpt>
      <trkpt lat="41.69677" lon="9.0658">
        <ele>444.4</ele>
        <time>2024-08-05T10:27:32Z</time>
      </trkpt>
      <trkpt lat="41.69678" lon="9.06578">
        <ele>444.2</ele>
        <time>2024-08-05T10:27:34Z</time>
      </trkpt>
      <trkpt lat="41.6968" lon="9.06576">
        <ele>444.2</ele>
        <time>2024-08-05T10:27:37Z</time>
      </trkpt>
      <trkpt lat="41.69684" lon="9.06567">
        <ele>443.8</ele>
        <time>2024-08-05T10:27:50Z</time>
      </trkpt>
      <trkpt lat="41.69689" lon="9.0656">
        <ele>443.2</ele>
        <time>2024-08-05T10:27:59Z</time>
      </trkpt>
      <trkpt lat="41.69691" lon="9.06557">
        <ele>443</ele>
        <time>2024-08-05T10:28:02Z</time>
      </trkpt>
      <trkpt lat="41.69699" lon="9.06543">
        <ele>442.2</ele>
        <time>2024-08-05T10:28:15Z</time>
      </trkpt>
      <trkpt lat="41.69699" lon="9.06543">
        <ele>442</ele>
        <time>2024-08-05T10:28:16Z</time>
      </trkpt>
      <trkpt lat="41.69706" lon="9.06535">
        <ele>441.6</ele>
        <time>2024-08-05T10:28:27Z</time>
      </trkpt>
      <trkpt lat="41.69707" lon="9.06534">
        <ele>441.6</ele>
        <time>2024-08-05T10:28:29Z</time>
      </trkpt>
      <trkpt lat="41.6971" lon="9.06531">
        <ele>441.6</ele>
        <time>2024-08-05T10:28:34Z</time>
      </trkpt>
      <trkpt lat="41.69711" lon="9.0653">
        <ele>441.6</ele>
        <time>2024-08-05T10:28:36Z</time>
      </trkpt>
      <trkpt lat="41.69711" lon="9.0653">
        <ele>441.4</ele>
        <time>2024-08-05T10:28:41Z</time>
      </trkpt>
      <trkpt lat="41.69715" lon="9.06528">
        <ele>441.2</ele>
        <time>2024-08-05T10:28:51Z</time>
      </trkpt>
      <trkpt lat="41.6972" lon="9.06526">
        <ele>441.2</ele>
        <time>2024-08-05T10:28:55Z</time>
      </trkpt>
      <trkpt lat="41.69722" lon="9.06516">
        <ele>441</ele>
        <time>2024-08-05T10:29:01Z</time>
      </trkpt>
      <trkpt lat="41.69724" lon="9.06511">
        <ele>440.8</ele>
        <time>2024-08-05T10:29:05Z</time>
      </trkpt>
      <trkpt lat="41.69732" lon="9.06503">
        <ele>440</ele>
        <time>2024-08-05T10:29:16Z</time>
      </trkpt>
      <trkpt lat="41.69738" lon="9.06498">
        <ele>439.8</ele>
        <time>2024-08-05T10:29:23Z</time>
      </trkpt>
      <trkpt lat="41.6974" lon="9.0649">
        <ele>439.2</ele>
        <time>2024-08-05T10:29:30Z</time>
      </trkpt>
      <trkpt lat="41.69744" lon="9.06485">
        <ele>438.8</ele>
        <time>2024-08-05T10:29:37Z</time>
      </trkpt>
      <trkpt lat="41.69746" lon="9.06478">
        <ele>438.6</ele>
        <time>2024-08-05T10:29:43Z</time>
      </trkpt>
      <trkpt lat="41.69747" lon="9.06474">
        <ele>438.2</ele>
        <time>2024-08-05T10:29:47Z</time>
      </trkpt>
      <trkpt lat="41.6975" lon="9.06469">
        <ele>438</ele>
        <time>2024-08-05T10:29:53Z</time>
      </trkpt>
      <trkpt lat="41.69751" lon="9.06466">
        <ele>437.8</ele>
        <time>2024-08-05T10:29:56Z</time>
      </trkpt>
      <trkpt lat="41.69751" lon="9.06465">
        <ele>437.8</ele>
        <time>2024-08-05T10:29:57Z</time>
      </trkpt>
      <trkpt lat="41.69754" lon="9.06458">
        <ele>437.8</ele>
        <time>2024-08-05T10:30:10Z</time>
      </trkpt>
      <trkpt lat="41.69765" lon="9.06457">
        <ele>437.2</ele>
        <time>2024-08-05T10:30:23Z</time>
      </trkpt>
      <trkpt lat="41.69768" lon="9.06452">
        <ele>436.8</ele>
        <time>2024-08-05T10:30:42Z</time>
      </trkpt>
      <trkpt lat="41.69769" lon="9.06451">
        <ele>436.6</ele>
        <time>2024-08-05T10:30:47Z</time>
      </trkpt>
      <trkpt lat="41.69773" lon="9.06451">
        <ele>436.4</ele>
        <time>2024-08-05T10:30:57Z</time>
      </trkpt>
      <trkpt lat="41.69773" lon="9.06451">
        <ele>436.4</ele>
        <time>2024-08-05T10:30:58Z</time>
      </trkpt>
      <trkpt lat="41.69775" lon="9.06451">
        <ele>436.4</ele>
        <time>2024-08-05T10:31:17Z</time>
      </trkpt>
      <trkpt lat="41.69774" lon="9.06447">
        <ele>436.4</ele>
        <time>2024-08-05T10:31:36Z</time>
      </trkpt>
      <trkpt lat="41.69774" lon="9.06446">
        <ele>436</ele>
        <time>2024-08-05T10:31:46Z</time>
      </trkpt>
      <trkpt lat="41.69777" lon="9.06448">
        <ele>436.2</ele>
        <time>2024-08-05T10:32:02Z</time>
      </trkpt>
      <trkpt lat="41.69786" lon="9.0645">
        <ele>436.6</ele>
        <time>2024-08-05T10:32:37Z</time>
      </trkpt>
      <trkpt lat="41.69783" lon="9.06446">
        <ele>436.2</ele>
        <time>2024-08-05T10:32:39Z</time>
      </trkpt>
      <trkpt lat="41.69774" lon="9.06441">
        <ele>436</ele>
        <time>2024-08-05T10:32:41Z</time>
      </trkpt>
      <trkpt lat="41.69774" lon="9.06434">
        <ele>435.8</ele>
        <time>2024-08-05T10:32:47Z</time>
      </trkpt>
      <trkpt lat="41.69775" lon="9.06431">
        <ele>435.6</ele>
        <time>2024-08-05T10:32:50Z</time>
      </trkpt>
      <trkpt lat="41.6977" lon="9.06416">
        <ele>434.4</ele>
        <time>2024-08-05T10:33:03Z</time>
      </trkpt>
      <trkpt lat="41.69769" lon="9.06416">
        <ele>434.2</ele>
        <time>2024-08-05T10:33:04Z</time>
      </trkpt>
      <trkpt lat="41.6977" lon="9.06416">
        <ele>434</ele>
        <time>2024-08-05T10:33:06Z</time>
      </trkpt>
      <trkpt lat="41.69775" lon="9.06418">
        <ele>434.4</ele>
        <time>2024-08-05T10:33:11Z</time>
      </trkpt>
      <trkpt lat="41.69778" lon="9.0642">
        <ele>434.4</ele>
        <time>2024-08-05T10:33:14Z</time>
      </trkpt>
      <trkpt lat="41.69779" lon="9.06421">
        <ele>434.4</ele>
        <time>2024-08-05T10:33:15Z</time>
      </trkpt>
      <trkpt lat="41.69783" lon="9.06423">
        <ele>434.2</ele>
        <time>2024-08-05T10:33:19Z</time>
      </trkpt>
      <trkpt lat="41.69785" lon="9.06423">
        <ele>434</ele>
        <time>2024-08-05T10:33:22Z</time>
      </trkpt>
      <trkpt lat="41.69786" lon="9.06419">
        <ele>433.8</ele>
        <time>2024-08-05T10:33:28Z</time>
      </trkpt>
      <trkpt lat="41.69787" lon="9.06419">
        <ele>434</ele>
        <time>2024-08-05T10:33:45Z</time>
      </trkpt>
      <trkpt lat="41.69789" lon="9.06415">
        <ele>434</ele>
        <time>2024-08-05T10:34:02Z</time>
      </trkpt>
      <trkpt lat="41.69792" lon="9.06415">
        <ele>434</ele>
        <time>2024-08-05T10:34:05Z</time>
      </trkpt>
      <trkpt lat="41.69794" lon="9.06415">
        <ele>433.8</ele>
        <time>2024-08-05T10:34:07Z</time>
      </trkpt>
      <trkpt lat="41.69796" lon="9.06415">
        <ele>433.8</ele>
        <time>2024-08-05T10:34:09Z</time>
      </trkpt>
      <trkpt lat="41.69798" lon="9.06414">
        <ele>433.8</ele>
        <time>2024-08-05T10:34:11Z</time>
      </trkpt>
      <trkpt lat="41.698" lon="9.06414">
        <ele>433.8</ele>
        <time>2024-08-05T10:34:14Z</time>
      </trkpt>
      <trkpt lat="41.69802" lon="9.06413">
        <ele>433.6</ele>
        <time>2024-08-05T10:34:17Z</time>
      </trkpt>
      <trkpt lat="41.6981" lon="9.06413">
        <ele>433.6</ele>
        <time>2024-08-05T10:34:25Z</time>
      </trkpt>
      <trkpt lat="41.69813" lon="9.06414">
        <ele>433.8</ele>
        <time>2024-08-05T10:34:31Z</time>
      </trkpt>
      <trkpt lat="41.69814" lon="9.06415">
        <ele>433.8</ele>
        <time>2024-08-05T10:34:32Z</time>
      </trkpt>
      <trkpt lat="41.69808" lon="9.06414">
        <ele>433.8</ele>
        <time>2024-08-05T10:34:40Z</time>
      </trkpt>
      <trkpt lat="41.69798" lon="9.06414">
        <ele>434.2</ele>
        <time>2024-08-05T10:34:55Z</time>
      </trkpt>
      <trkpt lat="41.69797" lon="9.06413">
        <ele>434.2</ele>
        <time>2024-08-05T10:34:56Z</time>
      </trkpt>
      <trkpt lat="41.69794" lon="9.06412">
        <ele>434.4</ele>
        <time>2024-08-05T10:34:58Z</time>
      </trkpt>
      <trkpt lat="41.69792" lon="9.06412">
        <ele>434.4</ele>
        <time>2024-08-05T10:35:00Z</time>
      </trkpt>
      <trkpt lat="41.69785" lon="9.06414">
        <ele>434.4</ele>
        <time>2024-08-05T10:35:09Z</time>
      </trkpt>
      <trkpt lat="41.69784" lon="9.06414">
        <ele>434.4</ele>
        <time>2024-08-05T10:35:11Z</time>
      </trkpt>
      <trkpt lat="41.69781" lon="9.06416">
        <ele>434.4</ele>
        <time>2024-08-05T10:35:24Z</time>
      </trkpt>
      <trkpt lat="41.69777" lon="9.06415">
        <ele>434.6</ele>
        <time>2024-08-05T10:35:41Z</time>
      </trkpt>
      <trkpt lat="41.69774" lon="9.0641">
        <ele>434.2</ele>
        <time>2024-08-05T10:35:54Z</time>
      </trkpt>
      <trkpt lat="41.69772" lon="9.06409">
        <ele>434.6</ele>
        <time>2024-08-05T10:35:57Z</time>
      </trkpt>
      <trkpt lat="41.69772" lon="9.06399">
        <ele>434</ele>
        <time>2024-08-05T10:36:12Z</time>
      </trkpt>
      <trkpt lat="41.69776" lon="9.064">
        <ele>434</ele>
        <time>2024-08-05T10:36:24Z</time>
      </trkpt>
      <trkpt lat="41.69779" lon="9.064">
        <ele>434.6</ele>
        <time>2024-08-05T10:36:40Z</time>
      </trkpt>
      <trkpt lat="41.6978" lon="9.06399">
        <ele>434.4</ele>
        <time>2024-08-05T10:36:54Z</time>
      </trkpt>
      <trkpt lat="41.69779" lon="9.06402">
        <ele>433.8</ele>
        <time>2024-08-05T10:37:07Z</time>
      </trkpt>
      <trkpt lat="41.6978" lon="9.06386">
        <ele>433</ele>
        <time>2024-08-05T11:59:50Z</time>
      </trkpt>
      <trkpt lat="41.6978" lon="9.06388">
        <ele>433</ele>
        <time>2024-08-05T11:59:54Z</time>
      </trkpt>
      <trkpt lat="41.69779" lon="9.06388">
        <ele>433</ele>
        <time>2024-08-05T12:00:00Z</time>
      </trkpt>
      <trkpt lat="41.69779" lon="9.06387">
        <ele>432</ele>
        <time>2024-08-05T12:00:06Z</time>
      </trkpt>
      <trkpt lat="41.69777" lon="9.06385">
        <ele>431.8</ele>
        <time>2024-08-05T12:00:15Z</time>
      </trkpt>
      <trkpt lat="41.69779" lon="9.06386">
        <ele>433</ele>
        <time>2024-08-05T12:00:30Z</time>
      </trkpt>
      <trkpt lat="41.6978" lon="9.06387">
        <ele>433</ele>
        <time>2024-08-05T12:00:34Z</time>
      </trkpt>
      <trkpt lat="41.6978" lon="9.06387">
        <ele>432.6</ele>
        <time>2024-08-05T12:01:41Z</time>
      </trkpt>
      <trkpt lat="41.69787" lon="9.0643">
        <ele>433</ele>
        <time>2024-08-05T12:01:55Z</time>
      </trkpt>
      <trkpt lat="41.69789" lon="9.06397">
        <ele>433.8</ele>
        <time>2024-08-05T12:02:00Z</time>
      </trkpt>
      <trkpt lat="41.69787" lon="9.06392">
        <ele>434</ele>
        <time>2024-08-05T12:02:02Z</time>
      </trkpt>
      <trkpt lat="41.69786" lon="9.06389">
        <ele>434</ele>
        <time>2024-08-05T12:02:03Z</time>
      </trkpt>
      <trkpt lat="41.69786" lon="9.06386">
        <ele>434</ele>
        <time>2024-08-05T12:02:04Z</time>
      </trkpt>
      <trkpt lat="41.69786" lon="9.06381">
        <ele>434</ele>
        <time>2024-08-05T12:02:06Z</time>
      </trkpt>
      <trkpt lat="41.69788" lon="9.06375">
        <ele>434.2</ele>
        <time>2024-08-05T12:02:10Z</time>
      </trkpt>
      <trkpt lat="41.69789" lon="9.06373">
        <ele>434.4</ele>
        <time>2024-08-05T12:02:13Z</time>
      </trkpt>
      <trkpt lat="41.69789" lon="9.0637">
        <ele>433.4</ele>
        <time>2024-08-05T12:02:24Z</time>
      </trkpt>
      <trkpt lat="41.69789" lon="9.06371">
        <ele>433.2</ele>
        <time>2024-08-05T12:02:41Z</time>
      </trkpt>
      <trkpt lat="41.69789" lon="9.06371">
        <ele>433</ele>
        <time>2024-08-05T12:02:42Z</time>
      </trkpt>
      <trkpt lat="41.6979" lon="9.06371">
        <ele>433.8</ele>
        <time>2024-08-05T12:02:55Z</time>
      </trkpt>
      <trkpt lat="41.69788" lon="9.06373">
        <ele>434.2</ele>
        <time>2024-08-05T12:02:58Z</time>
      </trkpt>
      <trkpt lat="41.69784" lon="9.06375">
        <ele>434</ele>
        <time>2024-08-05T12:03:05Z</time>
      </trkpt>
      <trkpt lat="41.6978" lon="9.06376">
        <ele>434.2</ele>
        <time>2024-08-05T12:03:18Z</time>
      </trkpt>
      <trkpt lat="41.69774" lon="9.06377">
        <ele>434.2</ele>
        <time>2024-08-05T12:03:30Z</time>
      </trkpt>
      <trkpt lat="41.69769" lon="9.06374">
        <ele>434.4</ele>
        <time>2024-08-05T12:03:37Z</time>
      </trkpt>
      <trkpt lat="41.69768" lon="9.06373">
        <ele>434.4</ele>
        <time>2024-08-05T12:03:42Z</time>
      </trkpt>
      <trkpt lat="41.69762" lon="9.06374">
        <ele>434.2</ele>
        <time>2024-08-05T12:03:55Z</time>
      </trkpt>
      <trkpt lat="41.69762" lon="9.06377">
        <ele>434.6</ele>
        <time>2024-08-05T12:04:07Z</time>
      </trkpt>
      <trkpt lat="41.6976" lon="9.06377">
        <ele>434</ele>
        <time>2024-08-05T12:04:21Z</time>
      </trkpt>
      <trkpt lat="41.69759" lon="9.0637">
        <ele>434</ele>
        <time>2024-08-05T12:04:28Z</time>
      </trkpt>
      <trkpt lat="41.69759" lon="9.06367">
        <ele>434</ele>
        <time>2024-08-05T12:04:31Z</time>
      </trkpt>
      <trkpt lat="41.69759" lon="9.06365">
        <ele>434</ele>
        <time>2024-08-05T12:04:33Z</time>
      </trkpt>
      <trkpt lat="41.6976" lon="9.06361">
        <ele>434</ele>
        <time>2024-08-05T12:04:38Z</time>
      </trkpt>
      <trkpt lat="41.69761" lon="9.06358">
        <ele>433</ele>
        <time>2024-08-05T12:04:45Z</time>
      </trkpt>
      <trkpt lat="41.69761" lon="9.06358">
        <ele>433</ele>
        <time>2024-08-05T12:04:47Z</time>
      </trkpt>
      <trkpt lat="41.69763" lon="9.06349">
        <ele>433.2</ele>
        <time>2024-08-05T12:05:04Z</time>
      </trkpt>
      <trkpt lat="41.69766" lon="9.0634">
        <ele>433</ele>
        <time>2024-08-05T12:05:17Z</time>
      </trkpt>
      <trkpt lat="41.6977" lon="9.06331">
        <ele>433.2</ele>
        <time>2024-08-05T12:05:28Z</time>
      </trkpt>
      <trkpt lat="41.69769" lon="9.06329">
        <ele>433</ele>
        <time>2024-08-05T12:05:30Z</time>
      </trkpt>
      <trkpt lat="41.69771" lon="9.06323">
        <ele>433</ele>
        <time>2024-08-05T12:05:37Z</time>
      </trkpt>
      <trkpt lat="41.69773" lon="9.0632">
        <ele>433</ele>
        <time>2024-08-05T12:05:42Z</time>
      </trkpt>
      <trkpt lat="41.69774" lon="9.06319">
        <ele>432.8</ele>
        <time>2024-08-05T12:05:43Z</time>
      </trkpt>
      <trkpt lat="41.69774" lon="9.06317">
        <ele>432.8</ele>
        <time>2024-08-05T12:05:44Z</time>
      </trkpt>
      <trkpt lat="41.69778" lon="9.0631">
        <ele>432</ele>
        <time>2024-08-05T12:05:53Z</time>
      </trkpt>
      <trkpt lat="41.69779" lon="9.06308">
        <ele>432</ele>
        <time>2024-08-05T12:05:55Z</time>
      </trkpt>
      <trkpt lat="41.69779" lon="9.06307">
        <ele>432</ele>
        <time>2024-08-05T12:05:57Z</time>
      </trkpt>
      <trkpt lat="41.69779" lon="9.06306">
        <ele>432</ele>
        <time>2024-08-05T12:05:58Z</time>
      </trkpt>
      <trkpt lat="41.69779" lon="9.06305">
        <ele>432</ele>
        <time>2024-08-05T12:06:00Z</time>
      </trkpt>
      <trkpt lat="41.69777" lon="9.06299">
        <ele>431.4</ele>
        <time>2024-08-05T12:06:11Z</time>
      </trkpt>
      <trkpt lat="41.69774" lon="9.06289">
        <ele>431.2</ele>
        <time>2024-08-05T12:06:25Z</time>
      </trkpt>
      <trkpt lat="41.69783" lon="9.0628">
        <ele>431</ele>
        <time>2024-08-05T12:06:36Z</time>
      </trkpt>
      <trkpt lat="41.69783" lon="9.06279">
        <ele>430.8</ele>
        <time>2024-08-05T12:06:37Z</time>
      </trkpt>
      <trkpt lat="41.69782" lon="9.06278">
        <ele>430.8</ele>
        <time>2024-08-05T12:06:39Z</time>
      </trkpt>
      <trkpt lat="41.69781" lon="9.06275">
        <ele>430.4</ele>
        <time>2024-08-05T12:06:52Z</time>
      </trkpt>
      <trkpt lat="41.69782" lon="9.06272">
        <ele>430.4</ele>
        <time>2024-08-05T12:07:07Z</time>
      </trkpt>
      <trkpt lat="41.69777" lon="9.06265">
        <ele>430.6</ele>
        <time>2024-08-05T12:07:15Z</time>
      </trkpt>
      <trkpt lat="41.69772" lon="9.06263">
        <ele>430.4</ele>
        <time>2024-08-05T12:07:18Z</time>
      </trkpt>
      <trkpt lat="41.69771" lon="9.06262">
        <ele>430.4</ele>
        <time>2024-08-05T12:07:20Z</time>
      </trkpt>
      <trkpt lat="41.69771" lon="9.06261">
        <ele>430.2</ele>
        <time>2024-08-05T12:07:33Z</time>
      </trkpt>
      <trkpt lat="41.6977" lon="9.0626">
        <ele>430</ele>
        <time>2024-08-05T12:07:37Z</time>
      </trkpt>
      <trkpt lat="41.6977" lon="9.06259">
        <ele>431</ele>
        <time>2024-08-05T12:07:43Z</time>
      </trkpt>
      <trkpt lat="41.69769" lon="9.0626">
        <ele>430.8</ele>
        <time>2024-08-05T12:07:49Z</time>
      </trkpt>
      <trkpt lat="41.69765" lon="9.06256">
        <ele>430.4</ele>
        <time>2024-08-05T12:08:01Z</time>
      </trkpt>
      <trkpt lat="41.69759" lon="9.06252">
        <ele>430.6</ele>
        <time>2024-08-05T12:08:11Z</time>
      </trkpt>
      <trkpt lat="41.69755" lon="9.06252">
        <ele>430.4</ele>
        <time>2024-08-05T12:08:14Z</time>
      </trkpt>
      <trkpt lat="41.69754" lon="9.06252">
        <ele>430.4</ele>
        <time>2024-08-05T12:08:15Z</time>
      </trkpt>
      <trkpt lat="41.69751" lon="9.06246">
        <ele>430</ele>
        <time>2024-08-05T12:08:23Z</time>
      </trkpt>
      <trkpt lat="41.6975" lon="9.06243">
        <ele>429.8</ele>
        <time>2024-08-05T12:08:26Z</time>
      </trkpt>
      <trkpt lat="41.69749" lon="9.06241">
        <ele>429.8</ele>
        <time>2024-08-05T12:08:29Z</time>
      </trkpt>
      <trkpt lat="41.69749" lon="9.0624">
        <ele>429.8</ele>
        <time>2024-08-05T12:08:30Z</time>
      </trkpt>
      <trkpt lat="41.69747" lon="9.06236">
        <ele>429.8</ele>
        <time>2024-08-05T12:08:34Z</time>
      </trkpt>
      <trkpt lat="41.69746" lon="9.06233">
        <ele>429.8</ele>
        <time>2024-08-05T12:08:41Z</time>
      </trkpt>
      <trkpt lat="41.6974" lon="9.06226">
        <ele>430</ele>
        <time>2024-08-05T12:08:55Z</time>
      </trkpt>
      <trkpt lat="41.69736" lon="9.06225">
        <ele>429.8</ele>
        <time>2024-08-05T12:09:10Z</time>
      </trkpt>
      <trkpt lat="41.69733" lon="9.06224">
        <ele>429.4</ele>
        <time>2024-08-05T12:09:26Z</time>
      </trkpt>
      <trkpt lat="41.69727" lon="9.0622">
        <ele>429.4</ele>
        <time>2024-08-05T12:09:36Z</time>
      </trkpt>
      <trkpt lat="41.69725" lon="9.06219">
        <ele>429.4</ele>
        <time>2024-08-05T12:09:39Z</time>
      </trkpt>
      <trkpt lat="41.69724" lon="9.06219">
        <ele>429.4</ele>
        <time>2024-08-05T12:09:40Z</time>
      </trkpt>
      <trkpt lat="41.69721" lon="9.06218">
        <ele>429.2</ele>
        <time>2024-08-05T12:09:44Z</time>
      </trkpt>
      <trkpt lat="41.6972" lon="9.06217">
        <ele>429</ele>
        <time>2024-08-05T12:09:48Z</time>
      </trkpt>
      <trkpt lat="41.69719" lon="9.06215">
        <ele>428.6</ele>
        <time>2024-08-05T12:09:51Z</time>
      </trkpt>
      <trkpt lat="41.69716" lon="9.06211">
        <ele>428.8</ele>
        <time>2024-08-05T12:10:01Z</time>
      </trkpt>
      <trkpt lat="41.69715" lon="9.06212">
        <ele>428.2</ele>
        <time>2024-08-05T12:10:10Z</time>
      </trkpt>
      <trkpt lat="41.69713" lon="9.06212">
        <ele>428.4</ele>
        <time>2024-08-05T12:10:22Z</time>
      </trkpt>
      <trkpt lat="41.69709" lon="9.06211">
        <ele>428.8</ele>
        <time>2024-08-05T12:10:33Z</time>
      </trkpt>
      <trkpt lat="41.69704" lon="9.0621">
        <ele>428</ele>
        <time>2024-08-05T12:10:37Z</time>
      </trkpt>
      <trkpt lat="41.69695" lon="9.06206">
        <ele>427.2</ele>
        <time>2024-08-05T12:10:46Z</time>
      </trkpt>
      <trkpt lat="41.6969" lon="9.06205">
        <ele>426.8</ele>
        <time>2024-08-05T12:10:52Z</time>
      </trkpt>
      <trkpt lat="41.69681" lon="9.06202">
        <ele>426.8</ele>
        <time>2024-08-05T12:11:02Z</time>
      </trkpt>
      <trkpt lat="41.69675" lon="9.06198">
        <ele>426.2</ele>
        <time>2024-08-05T12:11:16Z</time>
      </trkpt>
      <trkpt lat="41.69682" lon="9.06195">
        <ele>426.2</ele>
        <time>2024-08-05T12:11:28Z</time>
      </trkpt>
      <trkpt lat="41.6968" lon="9.06196">
        <ele>427</ele>
        <time>2024-08-05T12:11:42Z</time>
      </trkpt>
      <trkpt lat="41.69685" lon="9.06196">
        <ele>426</ele>
        <time>2024-08-05T12:11:56Z</time>
      </trkpt>
      <trkpt lat="41.69687" lon="9.06196">
        <ele>426.8</ele>
        <time>2024-08-05T12:12:10Z</time>
      </trkpt>
      <trkpt lat="41.69688" lon="9.06196">
        <ele>426.4</ele>
        <time>2024-08-05T12:12:27Z</time>
      </trkpt>
      <trkpt lat="41.69694" lon="9.06207">
        <ele>426.8</ele>
        <time>2024-08-05T12:12:42Z</time>
      </trkpt>
      <trkpt lat="41.69698" lon="9.06209">
        <ele>427</ele>
        <time>2024-08-05T12:12:46Z</time>
      </trkpt>
      <trkpt lat="41.69701" lon="9.06213">
        <ele>427.8</ele>
        <time>2024-08-05T12:12:56Z</time>
      </trkpt>
      <trkpt lat="41.69701" lon="9.06213">
        <ele>428</ele>
        <time>2024-08-05T12:12:57Z</time>
      </trkpt>
      <trkpt lat="41.69699" lon="9.06221">
        <ele>428.6</ele>
        <time>2024-08-05T12:13:14Z</time>
      </trkpt>
      <trkpt lat="41.69699" lon="9.06221">
        <ele>429.2</ele>
        <time>2024-08-05T12:13:29Z</time>
      </trkpt>
      <trkpt lat="41.69695" lon="9.06219">
        <ele>430.4</ele>
        <time>2024-08-05T12:13:32Z</time>
      </trkpt>
      <trkpt lat="41.697" lon="9.06218">
        <ele>430.8</ele>
        <time>2024-08-05T12:13:35Z</time>
      </trkpt>
      <trkpt lat="41.69702" lon="9.06219">
        <ele>431</ele>
        <time>2024-08-05T12:13:36Z</time>
      </trkpt>
      <trkpt lat="41.69706" lon="9.06218">
        <ele>431.4</ele>
        <time>2024-08-05T12:13:39Z</time>
      </trkpt>
      <trkpt lat="41.6971" lon="9.06221">
        <ele>432.6</ele>
        <time>2024-08-05T12:13:48Z</time>
      </trkpt>
      <trkpt lat="41.6971" lon="9.06222">
        <ele>432.6</ele>
        <time>2024-08-05T12:13:50Z</time>
      </trkpt>
      <trkpt lat="41.69709" lon="9.06223">
        <ele>432.8</ele>
        <time>2024-08-05T12:14:07Z</time>
      </trkpt>
      <trkpt lat="41.69713" lon="9.06223">
        <ele>433.4</ele>
        <time>2024-08-05T12:14:22Z</time>
      </trkpt>
      <trkpt lat="41.69715" lon="9.06222">
        <ele>433.8</ele>
        <time>2024-08-05T12:14:24Z</time>
      </trkpt>
      <trkpt lat="41.69716" lon="9.06222">
        <ele>434</ele>
        <time>2024-08-05T12:14:26Z</time>
      </trkpt>
      <trkpt lat="41.69721" lon="9.06235">
        <ele>434.4</ele>
        <time>2024-08-05T12:14:33Z</time>
      </trkpt>
      <trkpt lat="41.69721" lon="9.06238">
        <ele>434.4</ele>
        <time>2024-08-05T12:14:34Z</time>
      </trkpt>
      <trkpt lat="41.69719" lon="9.06246">
        <ele>434.8</ele>
        <time>2024-08-05T12:14:38Z</time>
      </trkpt>
      <trkpt lat="41.6972" lon="9.06246">
        <ele>434.8</ele>
        <time>2024-08-05T12:14:39Z</time>
      </trkpt>
      <trkpt lat="41.69721" lon="9.06248">
        <ele>435.2</ele>
        <time>2024-08-05T12:14:45Z</time>
      </trkpt>
      <trkpt lat="41.69723" lon="9.06244">
        <ele>434.8</ele>
        <time>2024-08-05T12:15:01Z</time>
      </trkpt>
      <trkpt lat="41.69723" lon="9.06246">
        <ele>435.6</ele>
        <time>2024-08-05T12:15:16Z</time>
      </trkpt>
      <trkpt lat="41.69719" lon="9.06249">
        <ele>434.8</ele>
        <time>2024-08-05T12:15:33Z</time>
      </trkpt>
      <trkpt lat="41.69715" lon="9.06254">
        <ele>435.6</ele>
        <time>2024-08-05T12:15:39Z</time>
      </trkpt>
      <trkpt lat="41.69714" lon="9.06254">
        <ele>436</ele>
        <time>2024-08-05T12:15:41Z</time>
      </trkpt>
      <trkpt lat="41.69713" lon="9.06255">
        <ele>436.6</ele>
        <time>2024-08-05T12:15:45Z</time>
      </trkpt>
      <trkpt lat="41.69713" lon="9.06256">
        <ele>437</ele>
        <time>2024-08-05T12:15:49Z</time>
      </trkpt>
      <trkpt lat="41.6971" lon="9.0626">
        <ele>438</ele>
        <time>2024-08-05T12:15:56Z</time>
      </trkpt>
      <trkpt lat="41.69709" lon="9.06261">
        <ele>438</ele>
        <time>2024-08-05T12:16:00Z</time>
      </trkpt>
      <trkpt lat="41.69709" lon="9.06261">
        <ele>438.2</ele>
        <time>2024-08-05T12:16:14Z</time>
      </trkpt>
      <trkpt lat="41.69709" lon="9.06256">
        <ele>438.6</ele>
        <time>2024-08-05T12:16:30Z</time>
      </trkpt>
      <trkpt lat="41.69709" lon="9.06255">
        <ele>438.6</ele>
        <time>2024-08-05T12:16:31Z</time>
      </trkpt>
      <trkpt lat="41.69709" lon="9.06254">
        <ele>438.8</ele>
        <time>2024-08-05T12:16:33Z</time>
      </trkpt>
      <trkpt lat="41.69709" lon="9.06254">
        <ele>439</ele>
        <time>2024-08-05T12:16:36Z</time>
      </trkpt>
      <trkpt lat="41.69709" lon="9.06253">
        <ele>438.6</ele>
        <time>2024-08-05T12:16:49Z</time>
      </trkpt>
      <trkpt lat="41.69703" lon="9.06261">
        <ele>438.8</ele>
        <time>2024-08-05T12:17:06Z</time>
      </trkpt>
      <trkpt lat="41.69703" lon="9.06263">
        <ele>439</ele>
        <time>2024-08-05T12:17:23Z</time>
      </trkpt>
      <trkpt lat="41.69706" lon="9.06255">
        <ele>438.6</ele>
        <time>2024-08-05T12:17:38Z</time>
      </trkpt>
      <trkpt lat="41.69701" lon="9.06256">
        <ele>438.8</ele>
        <time>2024-08-05T12:17:55Z</time>
      </trkpt>
      <trkpt lat="41.69701" lon="9.06262">
        <ele>438.8</ele>
        <time>2024-08-05T12:18:12Z</time>
      </trkpt>
      <trkpt lat="41.69692" lon="9.06252">
        <ele>438.4</ele>
        <time>2024-08-05T12:18:21Z</time>
      </trkpt>
      <trkpt lat="41.69687" lon="9.06249">
        <ele>438.6</ele>
        <time>2024-08-05T12:18:26Z</time>
      </trkpt>
      <trkpt lat="41.69687" lon="9.06247">
        <ele>438</ele>
        <time>2024-08-05T12:18:39Z</time>
      </trkpt>
      <trkpt lat="41.69686" lon="9.06248">
        <ele>438</ele>
        <time>2024-08-05T12:18:42Z</time>
      </trkpt>
      <trkpt lat="41.69684" lon="9.06248">
        <ele>437.8</ele>
        <time>2024-08-05T12:18:58Z</time>
      </trkpt>
      <trkpt lat="41.6968" lon="9.06248">
        <ele>437.8</ele>
        <time>2024-08-05T12:19:13Z</time>
      </trkpt>
      <trkpt lat="41.69679" lon="9.06244">
        <ele>437.8</ele>
        <time>2024-08-05T12:19:26Z</time>
      </trkpt>
      <trkpt lat="41.69676" lon="9.06249">
        <ele>437.8</ele>
        <time>2024-08-05T12:19:32Z</time>
      </trkpt>
      <trkpt lat="41.69675" lon="9.0625">
        <ele>437.8</ele>
        <time>2024-08-05T12:19:38Z</time>
      </trkpt>
      <trkpt lat="41.69673" lon="9.06252">
        <ele>438</ele>
        <time>2024-08-05T12:19:55Z</time>
      </trkpt>
      <trkpt lat="41.69677" lon="9.06241">
        <ele>438</ele>
        <time>2024-08-05T12:20:01Z</time>
      </trkpt>
      <trkpt lat="41.69677" lon="9.06241">
        <ele>437.8</ele>
        <time>2024-08-05T12:20:05Z</time>
      </trkpt>
      <trkpt lat="41.69674" lon="9.06243">
        <ele>438.2</ele>
        <time>2024-08-05T12:20:16Z</time>
      </trkpt>
      <trkpt lat="41.69676" lon="9.06248">
        <ele>438.4</ele>
        <time>2024-08-05T12:20:28Z</time>
      </trkpt>
      <trkpt lat="41.69676" lon="9.06252">
        <ele>439</ele>
        <time>2024-08-05T12:20:36Z</time>
      </trkpt>
      <trkpt lat="41.69675" lon="9.06255">
        <ele>439.4</ele>
        <time>2024-08-05T12:20:39Z</time>
      </trkpt>
      <trkpt lat="41.69676" lon="9.06257">
        <ele>440.2</ele>
        <time>2024-08-05T12:20:42Z</time>
      </trkpt>
      <trkpt lat="41.69677" lon="9.06259">
        <ele>440.4</ele>
        <time>2024-08-05T12:20:45Z</time>
      </trkpt>
      <trkpt lat="41.69678" lon="9.0626">
        <ele>440.6</ele>
        <time>2024-08-05T12:20:47Z</time>
      </trkpt>
      <trkpt lat="41.69678" lon="9.06261">
        <ele>441.2</ele>
        <time>2024-08-05T12:20:52Z</time>
      </trkpt>
      <trkpt lat="41.69678" lon="9.06263">
        <ele>441.6</ele>
        <time>2024-08-05T12:21:06Z</time>
      </trkpt>
      <trkpt lat="41.69672" lon="9.06268">
        <ele>442</ele>
        <time>2024-08-05T12:21:19Z</time>
      </trkpt>
      <trkpt lat="41.69671" lon="9.06268">
        <ele>442.2</ele>
        <time>2024-08-05T12:21:21Z</time>
      </trkpt>
      <trkpt lat="41.69671" lon="9.06268">
        <ele>442.4</ele>
        <time>2024-08-05T12:21:37Z</time>
      </trkpt>
      <trkpt lat="41.69671" lon="9.06269">
        <ele>442.4</ele>
        <time>2024-08-05T12:21:43Z</time>
      </trkpt>
      <trkpt lat="41.69669" lon="9.06271">
        <ele>441.8</ele>
        <time>2024-08-05T12:22:04Z</time>
      </trkpt>
      <trkpt lat="41.69668" lon="9.06272">
        <ele>442</ele>
        <time>2024-08-05T12:22:17Z</time>
      </trkpt>
      <trkpt lat="41.69674" lon="9.06279">
        <ele>442.2</ele>
        <time>2024-08-05T12:22:50Z</time>
      </trkpt>
      <trkpt lat="41.69675" lon="9.06272">
        <ele>442</ele>
        <time>2024-08-05T12:23:04Z</time>
      </trkpt>
      <trkpt lat="41.69681" lon="9.06273">
        <ele>442.4</ele>
        <time>2024-08-05T12:23:17Z</time>
      </trkpt>
      <trkpt lat="41.69686" lon="9.06275">
        <ele>442.4</ele>
        <time>2024-08-05T12:23:24Z</time>
      </trkpt>
      <trkpt lat="41.69687" lon="9.06277">
        <ele>442.2</ele>
        <time>2024-08-05T12:23:27Z</time>
      </trkpt>
      <trkpt lat="41.69688" lon="9.06279">
        <ele>442</ele>
        <time>2024-08-05T12:23:31Z</time>
      </trkpt>
      <trkpt lat="41.69708" lon="9.06294">
        <ele>442</ele>
        <time>2024-08-05T12:24:05Z</time>
      </trkpt>
      <trkpt lat="41.69699" lon="9.06287">
        <ele>441.8</ele>
        <time>2024-08-05T12:24:12Z</time>
      </trkpt>
      <trkpt lat="41.69702" lon="9.06289">
        <ele>441.8</ele>
        <time>2024-08-05T12:24:20Z</time>
      </trkpt>
      <trkpt lat="41.69708" lon="9.06297">
        <ele>441.4</ele>
        <time>2024-08-05T12:24:33Z</time>
      </trkpt>
      <trkpt lat="41.69709" lon="9.063">
        <ele>441.2</ele>
        <time>2024-08-05T12:24:47Z</time>
      </trkpt>
      <trkpt lat="41.6971" lon="9.06303">
        <ele>441.2</ele>
        <time>2024-08-05T12:24:52Z</time>
      </trkpt>
      <trkpt lat="41.69711" lon="9.06302">
        <ele>440.8</ele>
        <time>2024-08-05T12:25:00Z</time>
      </trkpt>
      <trkpt lat="41.69719" lon="9.06303">
        <ele>440.6</ele>
        <time>2024-08-05T12:25:15Z</time>
      </trkpt>
      <trkpt lat="41.69726" lon="9.06298">
        <ele>440.6</ele>
        <time>2024-08-05T12:25:29Z</time>
      </trkpt>
      <trkpt lat="41.69729" lon="9.06301">
        <ele>440.4</ele>
        <time>2024-08-05T12:25:43Z</time>
      </trkpt>
      <trkpt lat="41.69734" lon="9.06301">
        <ele>440.4</ele>
        <time>2024-08-05T12:25:49Z</time>
      </trkpt>
      <trkpt lat="41.69733" lon="9.06305">
        <ele>440.2</ele>
        <time>2024-08-05T12:25:52Z</time>
      </trkpt>
      <trkpt lat="41.69733" lon="9.06306">
        <ele>440.2</ele>
        <time>2024-08-05T12:25:54Z</time>
      </trkpt>
      <trkpt lat="41.69734" lon="9.06307">
        <ele>440.2</ele>
        <time>2024-08-05T12:25:56Z</time>
      </trkpt>
      <trkpt lat="41.69734" lon="9.06309">
        <ele>440.4</ele>
        <time>2024-08-05T12:26:00Z</time>
      </trkpt>
      <trkpt lat="41.69734" lon="9.06311">
        <ele>440</ele>
        <time>2024-08-05T12:26:07Z</time>
      </trkpt>
      <trkpt lat="41.69735" lon="9.06312">
        <ele>439.6</ele>
        <time>2024-08-05T12:26:11Z</time>
      </trkpt>
      <trkpt lat="41.69736" lon="9.06313">
        <ele>438.8</ele>
        <time>2024-08-05T12:26:14Z</time>
      </trkpt>
      <trkpt lat="41.69736" lon="9.06313">
        <ele>437.8</ele>
        <time>2024-08-05T12:26:26Z</time>
      </trkpt>
      <trkpt lat="41.69734" lon="9.063">
        <ele>438</ele>
        <time>2024-08-05T12:26:39Z</time>
      </trkpt>
      <trkpt lat="41.69734" lon="9.06298">
        <ele>438</ele>
        <time>2024-08-05T12:26:41Z</time>
      </trkpt>
      <trkpt lat="41.69736" lon="9.06297">
        <ele>438.2</ele>
        <time>2024-08-05T12:26:43Z</time>
      </trkpt>
      <trkpt lat="41.69737" lon="9.06296">
        <ele>438.2</ele>
        <time>2024-08-05T12:26:46Z</time>
      </trkpt>
      <trkpt lat="41.69741" lon="9.0629">
        <ele>438.4</ele>
        <time>2024-08-05T12:26:49Z</time>
      </trkpt>
      <trkpt lat="41.69742" lon="9.06289">
        <ele>438.4</ele>
        <time>2024-08-05T12:26:51Z</time>
      </trkpt>
      <trkpt lat="41.69742" lon="9.06289">
        <ele>438.4</ele>
        <time>2024-08-05T12:26:52Z</time>
      </trkpt>
      <trkpt lat="41.69745" lon="9.06286">
        <ele>438.4</ele>
        <time>2024-08-05T12:26:55Z</time>
      </trkpt>
      <trkpt lat="41.69747" lon="9.06279">
        <ele>438.4</ele>
        <time>2024-08-05T12:27:07Z</time>
      </trkpt>
      <trkpt lat="41.69742" lon="9.06284">
        <ele>438.4</ele>
        <time>2024-08-05T12:27:13Z</time>
      </trkpt>
      <trkpt lat="41.69742" lon="9.06286">
        <ele>438.6</ele>
        <time>2024-08-05T12:27:15Z</time>
      </trkpt>
      <trkpt lat="41.69742" lon="9.06286">
        <ele>438.8</ele>
        <time>2024-08-05T12:27:16Z</time>
      </trkpt>
      <trkpt lat="41.6974" lon="9.06298">
        <ele>438.4</ele>
        <time>2024-08-05T12:27:28Z</time>
      </trkpt>
      <trkpt lat="41.69738" lon="9.06303">
        <ele>438.4</ele>
        <time>2024-08-05T12:27:36Z</time>
      </trkpt>
      <trkpt lat="41.69737" lon="9.06304">
        <ele>438.4</ele>
        <time>2024-08-05T12:27:38Z</time>
      </trkpt>
      <trkpt lat="41.69736" lon="9.06308">
        <ele>438.4</ele>
        <time>2024-08-05T12:27:41Z</time>
      </trkpt>
      <trkpt lat="41.69736" lon="9.06309">
        <ele>438.2</ele>
        <time>2024-08-05T12:27:43Z</time>
      </trkpt>
      <trkpt lat="41.69736" lon="9.0631">
        <ele>438.2</ele>
        <time>2024-08-05T12:27:44Z</time>
      </trkpt>
      <trkpt lat="41.69736" lon="9.06312">
        <ele>438.2</ele>
        <time>2024-08-05T12:27:46Z</time>
      </trkpt>
      <trkpt lat="41.69736" lon="9.06314">
        <ele>438</ele>
        <time>2024-08-05T12:27:48Z</time>
      </trkpt>
      <trkpt lat="41.69737" lon="9.06319">
        <ele>437.8</ele>
        <time>2024-08-05T12:27:53Z</time>
      </trkpt>
      <trkpt lat="41.69738" lon="9.06321">
        <ele>437.8</ele>
        <time>2024-08-05T12:27:55Z</time>
      </trkpt>
      <trkpt lat="41.69738" lon="9.06324">
        <ele>437.6</ele>
        <time>2024-08-05T12:27:58Z</time>
      </trkpt>
      <trkpt lat="41.69737" lon="9.06326">
        <ele>437.6</ele>
        <time>2024-08-05T12:28:03Z</time>
      </trkpt>
      <trkpt lat="41.69737" lon="9.06328">
        <ele>437.4</ele>
        <time>2024-08-05T12:28:06Z</time>
      </trkpt>
      <trkpt lat="41.69733" lon="9.06329">
        <ele>437.6</ele>
        <time>2024-08-05T12:28:13Z</time>
      </trkpt>
      <trkpt lat="41.69729" lon="9.06332">
        <ele>437.6</ele>
        <time>2024-08-05T12:28:19Z</time>
      </trkpt>
      <trkpt lat="41.69727" lon="9.06335">
        <ele>437.6</ele>
        <time>2024-08-05T12:28:21Z</time>
      </trkpt>
      <trkpt lat="41.69728" lon="9.06343">
        <ele>437.6</ele>
        <time>2024-08-05T12:28:25Z</time>
      </trkpt>
      <trkpt lat="41.69729" lon="9.06344">
        <ele>437.6</ele>
        <time>2024-08-05T12:28:26Z</time>
      </trkpt>
      <trkpt lat="41.69733" lon="9.06353">
        <ele>437.2</ele>
        <time>2024-08-05T12:28:36Z</time>
      </trkpt>
      <trkpt lat="41.6974" lon="9.06366">
        <ele>436.8</ele>
        <time>2024-08-05T12:28:52Z</time>
      </trkpt>
      <trkpt lat="41.69742" lon="9.06372">
        <ele>436.8</ele>
        <time>2024-08-05T12:28:59Z</time>
      </trkpt>
      <trkpt lat="41.69744" lon="9.06373">
        <ele>437</ele>
        <time>2024-08-05T12:29:01Z</time>
      </trkpt>
      <trkpt lat="41.69744" lon="9.06374">
        <ele>437</ele>
        <time>2024-08-05T12:29:03Z</time>
      </trkpt>
      <trkpt lat="41.69746" lon="9.06375">
        <ele>437</ele>
        <time>2024-08-05T12:29:05Z</time>
      </trkpt>
      <trkpt lat="41.69747" lon="9.06376">
        <ele>437</ele>
        <time>2024-08-05T12:29:07Z</time>
      </trkpt>
      <trkpt lat="41.69748" lon="9.06376">
        <ele>437</ele>
        <time>2024-08-05T12:29:08Z</time>
      </trkpt>
      <trkpt lat="41.69748" lon="9.06379">
        <ele>437</ele>
        <time>2024-08-05T12:29:15Z</time>
      </trkpt>
      <trkpt lat="41.69752" lon="9.06383">
        <ele>437.2</ele>
        <time>2024-08-05T12:29:25Z</time>
      </trkpt>
      <trkpt lat="41.69752" lon="9.06389">
        <ele>437.4</ele>
        <time>2024-08-05T12:29:30Z</time>
      </trkpt>
      <trkpt lat="41.69752" lon="9.06392">
        <ele>437.8</ele>
        <time>2024-08-05T12:29:33Z</time>
      </trkpt>
      <trkpt lat="41.69753" lon="9.06394">
        <ele>437.8</ele>
        <time>2024-08-05T12:29:36Z</time>
      </trkpt>
      <trkpt lat="41.69752" lon="9.06396">
        <ele>437.8</ele>
        <time>2024-08-05T12:29:42Z</time>
      </trkpt>
      <trkpt lat="41.69752" lon="9.064">
        <ele>438</ele>
        <time>2024-08-05T12:29:47Z</time>
      </trkpt>
      <trkpt lat="41.69752" lon="9.06401">
        <ele>438.2</ele>
        <time>2024-08-05T12:29:59Z</time>
      </trkpt>
      <trkpt lat="41.69751" lon="9.06406">
        <ele>438.2</ele>
        <time>2024-08-05T12:30:18Z</time>
      </trkpt>
      <trkpt lat="41.6976" lon="9.0641">
        <ele>438.8</ele>
        <time>2024-08-05T12:30:34Z</time>
      </trkpt>
      <trkpt lat="41.69766" lon="9.06411">
        <ele>438.8</ele>
        <time>2024-08-05T12:30:41Z</time>
      </trkpt>
      <trkpt lat="41.69769" lon="9.06411">
        <ele>438.8</ele>
        <time>2024-08-05T12:30:45Z</time>
      </trkpt>
      <trkpt lat="41.69772" lon="9.06407">
        <ele>438.8</ele>
        <time>2024-08-05T12:30:47Z</time>
      </trkpt>
      <trkpt lat="41.69775" lon="9.06405">
        <ele>438.8</ele>
        <time>2024-08-05T12:30:50Z</time>
      </trkpt>
      <trkpt lat="41.69777" lon="9.06406">
        <ele>438.8</ele>
        <time>2024-08-05T12:30:52Z</time>
      </trkpt>
      <trkpt lat="41.6978" lon="9.06408">
        <ele>438.6</ele>
        <time>2024-08-05T12:30:59Z</time>
      </trkpt>
      <trkpt lat="41.69776" lon="9.06405">
        <ele>438.2</ele>
        <time>2024-08-05T12:31:12Z</time>
      </trkpt>
      <trkpt lat="41.69779" lon="9.06402">
        <ele>438.4</ele>
        <time>2024-08-05T12:31:26Z</time>
      </trkpt>
      <trkpt lat="41.69783" lon="9.06404">
        <ele>438.4</ele>
        <time>2024-08-05T12:31:29Z</time>
      </trkpt>
      <trkpt lat="41.69784" lon="9.06404">
        <ele>438.4</ele>
        <time>2024-08-05T12:31:30Z</time>
      </trkpt>
      <trkpt lat="41.69788" lon="9.06406">
        <ele>438.2</ele>
        <time>2024-08-05T12:31:32Z</time>
      </trkpt>
      <trkpt lat="41.69794" lon="9.0641">
        <ele>438</ele>
        <time>2024-08-05T12:31:37Z</time>
      </trkpt>
      <trkpt lat="41.69799" lon="9.06411">
        <ele>437.8</ele>
        <time>2024-08-05T12:31:41Z</time>
      </trkpt>
      <trkpt lat="41.69802" lon="9.0641">
        <ele>437.8</ele>
        <time>2024-08-05T12:31:44Z</time>
      </trkpt>
      <trkpt lat="41.69803" lon="9.06411">
        <ele>437.8</ele>
        <time>2024-08-05T12:31:46Z</time>
      </trkpt>
      <trkpt lat="41.69804" lon="9.06412">
        <ele>437.8</ele>
        <time>2024-08-05T12:31:48Z</time>
      </trkpt>
      <trkpt lat="41.69806" lon="9.06412">
        <ele>437.6</ele>
        <time>2024-08-05T12:31:52Z</time>
      </trkpt>
      <trkpt lat="41.69813" lon="9.06411">
        <ele>437.6</ele>
        <time>2024-08-05T12:31:58Z</time>
      </trkpt>
      <trkpt lat="41.69815" lon="9.06412">
        <ele>437.6</ele>
        <time>2024-08-05T12:32:00Z</time>
      </trkpt>
      <trkpt lat="41.69822" lon="9.06406">
        <ele>437.6</ele>
        <time>2024-08-05T12:32:05Z</time>
      </trkpt>
      <trkpt lat="41.69825" lon="9.06407">
        <ele>437.8</ele>
        <time>2024-08-05T12:32:08Z</time>
      </trkpt>
      <trkpt lat="41.69833" lon="9.06408">
        <ele>438</ele>
        <time>2024-08-05T12:32:18Z</time>
      </trkpt>
      <trkpt lat="41.69836" lon="9.06408">
        <ele>438</ele>
        <time>2024-08-05T12:32:21Z</time>
      </trkpt>
      <trkpt lat="41.69839" lon="9.06408">
        <ele>437.8</ele>
        <time>2024-08-05T12:32:26Z</time>
      </trkpt>
      <trkpt lat="41.6984" lon="9.06408">
        <ele>437.8</ele>
        <time>2024-08-05T12:32:28Z</time>
      </trkpt>
      <trkpt lat="41.69842" lon="9.06409">
        <ele>437.8</ele>
        <time>2024-08-05T12:32:30Z</time>
      </trkpt>
      <trkpt lat="41.69842" lon="9.06409">
        <ele>438</ele>
        <time>2024-08-05T12:32:31Z</time>
      </trkpt>
      <trkpt lat="41.69843" lon="9.06409">
        <ele>438</ele>
        <time>2024-08-05T12:32:33Z</time>
      </trkpt>
      <trkpt lat="41.69847" lon="9.06403">
        <ele>438.2</ele>
        <time>2024-08-05T12:32:43Z</time>
      </trkpt>
      <trkpt lat="41.69853" lon="9.06404">
        <ele>438.2</ele>
        <time>2024-08-05T12:32:48Z</time>
      </trkpt>
      <trkpt lat="41.69859" lon="9.06404">
        <ele>438.4</ele>
        <time>2024-08-05T12:32:55Z</time>
      </trkpt>
      <trkpt lat="41.69866" lon="9.06403">
        <ele>438</ele>
        <time>2024-08-05T12:33:09Z</time>
      </trkpt>
      <trkpt lat="41.69871" lon="9.06402">
        <ele>438.2</ele>
        <time>2024-08-05T12:33:21Z</time>
      </trkpt>
      <trkpt lat="41.69875" lon="9.06402">
        <ele>438</ele>
        <time>2024-08-05T12:33:34Z</time>
      </trkpt>
      <trkpt lat="41.69884" lon="9.06403">
        <ele>438</ele>
        <time>2024-08-05T12:33:44Z</time>
      </trkpt>
      <trkpt lat="41.699" lon="9.06401">
        <ele>437.8</ele>
        <time>2024-08-05T12:34:00Z</time>
      </trkpt>
      <trkpt lat="41.69913" lon="9.06404">
        <ele>437.6</ele>
        <time>2024-08-05T12:34:18Z</time>
      </trkpt>
      <trkpt lat="41.69916" lon="9.06407">
        <ele>437.6</ele>
        <time>2024-08-05T12:34:30Z</time>
      </trkpt>
      <trkpt lat="41.69924" lon="9.06406">
        <ele>437.8</ele>
        <time>2024-08-05T12:34:44Z</time>
      </trkpt>
      <trkpt lat="41.69926" lon="9.06402">
        <ele>437.8</ele>
        <time>2024-08-05T12:34:55Z</time>
      </trkpt>
      <trkpt lat="41.69929" lon="9.06403">
        <ele>437.4</ele>
        <time>2024-08-05T12:35:08Z</time>
      </trkpt>
      <trkpt lat="41.69936" lon="9.06405">
        <ele>437.8</ele>
        <time>2024-08-05T12:35:23Z</time>
      </trkpt>
      <trkpt lat="41.6994" lon="9.06405">
        <ele>437.6</ele>
        <time>2024-08-05T12:35:33Z</time>
      </trkpt>
      <trkpt lat="41.69943" lon="9.06404">
        <ele>437.6</ele>
        <time>2024-08-05T12:35:45Z</time>
      </trkpt>
      <trkpt lat="41.69947" lon="9.06404">
        <ele>437.6</ele>
        <time>2024-08-05T12:35:49Z</time>
      </trkpt>
      <trkpt lat="41.69951" lon="9.06404">
        <ele>437.6</ele>
        <time>2024-08-05T12:35:53Z</time>
      </trkpt>
      <trkpt lat="41.69952" lon="9.06405">
        <ele>437.6</ele>
        <time>2024-08-05T12:35:55Z</time>
      </trkpt>
      <trkpt lat="41.69953" lon="9.06408">
        <ele>437.6</ele>
        <time>2024-08-05T12:35:58Z</time>
      </trkpt>
      <trkpt lat="41.69954" lon="9.06409">
        <ele>437.6</ele>
        <time>2024-08-05T12:35:59Z</time>
      </trkpt>
      <trkpt lat="41.69957" lon="9.06411">
        <ele>437.4</ele>
        <time>2024-08-05T12:36:03Z</time>
      </trkpt>
      <trkpt lat="41.69959" lon="9.06413">
        <ele>437.4</ele>
        <time>2024-08-05T12:36:06Z</time>
      </trkpt>
      <trkpt lat="41.6996" lon="9.06413">
        <ele>437.4</ele>
        <time>2024-08-05T12:36:08Z</time>
      </trkpt>
      <trkpt lat="41.69962" lon="9.06414">
        <ele>437.4</ele>
        <time>2024-08-05T12:36:12Z</time>
      </trkpt>
      <trkpt lat="41.69963" lon="9.06414">
        <ele>437.4</ele>
        <time>2024-08-05T12:36:14Z</time>
      </trkpt>
      <trkpt lat="41.69964" lon="9.06414">
        <ele>437.2</ele>
        <time>2024-08-05T12:36:15Z</time>
      </trkpt>
      <trkpt lat="41.69968" lon="9.0641">
        <ele>437.2</ele>
        <time>2024-08-05T12:36:21Z</time>
      </trkpt>
      <trkpt lat="41.69968" lon="9.06409">
        <ele>437.2</ele>
        <time>2024-08-05T12:36:23Z</time>
      </trkpt>
      <trkpt lat="41.69969" lon="9.06409">
        <ele>437.2</ele>
        <time>2024-08-05T12:36:24Z</time>
      </trkpt>
      <trkpt lat="41.6997" lon="9.06408">
        <ele>437.4</ele>
        <time>2024-08-05T12:36:25Z</time>
      </trkpt>
      <trkpt lat="41.69974" lon="9.06411">
        <ele>437.4</ele>
        <time>2024-08-05T12:36:34Z</time>
      </trkpt>
      <trkpt lat="41.69978" lon="9.06414">
        <ele>437.4</ele>
        <time>2024-08-05T12:36:39Z</time>
      </trkpt>
      <trkpt lat="41.6998" lon="9.06415">
        <ele>437.6</ele>
        <time>2024-08-05T12:36:41Z</time>
      </trkpt>
      <trkpt lat="41.69981" lon="9.06416">
        <ele>437.6</ele>
        <time>2024-08-05T12:36:44Z</time>
      </trkpt>
      <trkpt lat="41.69984" lon="9.06417">
        <ele>437.4</ele>
        <time>2024-08-05T12:36:49Z</time>
      </trkpt>
      <trkpt lat="41.6999" lon="9.06417">
        <ele>437.2</ele>
        <time>2024-08-05T12:37:02Z</time>
      </trkpt>
      <trkpt lat="41.69992" lon="9.06415">
        <ele>437.8</ele>
        <time>2024-08-05T12:37:16Z</time>
      </trkpt>
      <trkpt lat="41.69997" lon="9.06417">
        <ele>437.2</ele>
        <time>2024-08-05T12:37:28Z</time>
      </trkpt>
      <trkpt lat="41.69997" lon="9.0642">
        <ele>437</ele>
        <time>2024-08-05T12:37:37Z</time>
      </trkpt>
      <trkpt lat="41.70003" lon="9.06425">
        <ele>436.8</ele>
        <time>2024-08-05T12:37:46Z</time>
      </trkpt>
      <trkpt lat="41.70004" lon="9.06425">
        <ele>436.6</ele>
        <time>2024-08-05T12:37:48Z</time>
      </trkpt>
      <trkpt lat="41.70005" lon="9.06426">
        <ele>436.4</ele>
        <time>2024-08-05T12:37:49Z</time>
      </trkpt>
      <trkpt lat="41.70007" lon="9.06426">
        <ele>436.4</ele>
        <time>2024-08-05T12:37:51Z</time>
      </trkpt>
      <trkpt lat="41.70008" lon="9.06427">
        <ele>436.4</ele>
        <time>2024-08-05T12:37:53Z</time>
      </trkpt>
      <trkpt lat="41.70011" lon="9.06428">
        <ele>436.6</ele>
        <time>2024-08-05T12:37:55Z</time>
      </trkpt>
      <trkpt lat="41.70017" lon="9.0643">
        <ele>436.6</ele>
        <time>2024-08-05T12:38:02Z</time>
      </trkpt>
      <trkpt lat="41.70018" lon="9.0643">
        <ele>436.6</ele>
        <time>2024-08-05T12:38:03Z</time>
      </trkpt>
      <trkpt lat="41.70026" lon="9.06425">
        <ele>436.6</ele>
        <time>2024-08-05T12:38:13Z</time>
      </trkpt>
      <trkpt lat="41.7003" lon="9.06426">
        <ele>436.4</ele>
        <time>2024-08-05T12:38:21Z</time>
      </trkpt>
      <trkpt lat="41.70031" lon="9.06429">
        <ele>436.6</ele>
        <time>2024-08-05T12:38:24Z</time>
      </trkpt>
      <trkpt lat="41.70034" lon="9.06426">
        <ele>436.6</ele>
        <time>2024-08-05T12:38:35Z</time>
      </trkpt>
      <trkpt lat="41.70034" lon="9.06428">
        <ele>436.4</ele>
        <time>2024-08-05T12:38:46Z</time>
      </trkpt>
      <trkpt lat="41.70029" lon="9.0642">
        <ele>436.6</ele>
        <time>2024-08-05T12:38:57Z</time>
      </trkpt>
      <trkpt lat="41.70029" lon="9.06419">
        <ele>436.4</ele>
        <time>2024-08-05T12:38:58Z</time>
      </trkpt>
      <trkpt lat="41.70027" lon="9.06413">
        <ele>436.4</ele>
        <time>2024-08-05T12:39:05Z</time>
      </trkpt>
      <trkpt lat="41.70026" lon="9.06412">
        <ele>436.4</ele>
        <time>2024-08-05T12:39:08Z</time>
      </trkpt>
      <trkpt lat="41.70031" lon="9.06411">
        <ele>436.2</ele>
        <time>2024-08-05T12:39:27Z</time>
      </trkpt>
      <trkpt lat="41.70029" lon="9.06409">
        <ele>436.6</ele>
        <time>2024-08-05T12:39:38Z</time>
      </trkpt>
      <trkpt lat="41.70028" lon="9.06395">
        <ele>436</ele>
        <time>2024-08-05T12:39:48Z</time>
      </trkpt>
      <trkpt lat="41.70029" lon="9.06381">
        <ele>436</ele>
        <time>2024-08-05T12:39:58Z</time>
      </trkpt>
      <trkpt lat="41.70029" lon="9.06377">
        <ele>436</ele>
        <time>2024-08-05T12:40:01Z</time>
      </trkpt>
      <trkpt lat="41.70028" lon="9.0637">
        <ele>435.8</ele>
        <time>2024-08-05T12:40:07Z</time>
      </trkpt>
      <trkpt lat="41.70025" lon="9.06363">
        <ele>435.8</ele>
        <time>2024-08-05T12:40:14Z</time>
      </trkpt>
      <trkpt lat="41.70022" lon="9.06356">
        <ele>435.6</ele>
        <time>2024-08-05T12:40:21Z</time>
      </trkpt>
      <trkpt lat="41.70021" lon="9.06356">
        <ele>435.6</ele>
        <time>2024-08-05T12:40:23Z</time>
      </trkpt>
      <trkpt lat="41.70021" lon="9.06352">
        <ele>435.8</ele>
        <time>2024-08-05T12:40:27Z</time>
      </trkpt>
      <trkpt lat="41.70017" lon="9.06338">
        <ele>435.2</ele>
        <time>2024-08-05T12:40:38Z</time>
      </trkpt>
      <trkpt lat="41.70009" lon="9.06324">
        <ele>435.2</ele>
        <time>2024-08-05T12:40:52Z</time>
      </trkpt>
      <trkpt lat="41.70006" lon="9.06313">
        <ele>434.6</ele>
        <time>2024-08-05T12:41:01Z</time>
      </trkpt>
      <trkpt lat="41.70007" lon="9.06308">
        <ele>434.6</ele>
        <time>2024-08-05T12:41:05Z</time>
      </trkpt>
      <trkpt lat="41.70002" lon="9.06293">
        <ele>434.4</ele>
        <time>2024-08-05T12:41:18Z</time>
      </trkpt>
      <trkpt lat="41.7" lon="9.06288">
        <ele>434.6</ele>
        <time>2024-08-05T12:41:23Z</time>
      </trkpt>
      <trkpt lat="41.7" lon="9.06287">
        <ele>434.4</ele>
        <time>2024-08-05T12:41:27Z</time>
      </trkpt>
      <trkpt lat="41.69999" lon="9.06286">
        <ele>434.2</ele>
        <time>2024-08-05T12:41:43Z</time>
      </trkpt>
      <trkpt lat="41.69998" lon="9.06287">
        <ele>435.4</ele>
        <time>2024-08-05T12:42:02Z</time>
      </trkpt>
      <trkpt lat="41.69997" lon="9.06287">
        <ele>434.8</ele>
        <time>2024-08-05T12:42:19Z</time>
      </trkpt>
      <trkpt lat="41.69998" lon="9.06288">
        <ele>434.4</ele>
        <time>2024-08-05T12:42:34Z</time>
      </trkpt>
      <trkpt lat="41.70002" lon="9.06283">
        <ele>434</ele>
        <time>2024-08-05T12:42:46Z</time>
      </trkpt>
      <trkpt lat="41.70004" lon="9.0628">
        <ele>434</ele>
        <time>2024-08-05T12:42:49Z</time>
      </trkpt>
      <trkpt lat="41.70009" lon="9.06274">
        <ele>433.6</ele>
        <time>2024-08-05T12:42:57Z</time>
      </trkpt>
      <trkpt lat="41.70011" lon="9.06271">
        <ele>433.6</ele>
        <time>2024-08-05T12:43:00Z</time>
      </trkpt>
      <trkpt lat="41.70014" lon="9.06268">
        <ele>433.4</ele>
        <time>2024-08-05T12:43:05Z</time>
      </trkpt>
      <trkpt lat="41.70023" lon="9.06263">
        <ele>433</ele>
        <time>2024-08-05T12:43:16Z</time>
      </trkpt>
      <trkpt lat="41.70033" lon="9.06259">
        <ele>432.8</ele>
        <time>2024-08-05T12:43:30Z</time>
      </trkpt>
      <trkpt lat="41.70035" lon="9.06258">
        <ele>432.6</ele>
        <time>2024-08-05T12:43:34Z</time>
      </trkpt>
      <trkpt lat="41.70035" lon="9.06257">
        <ele>432.2</ele>
        <time>2024-08-05T12:43:41Z</time>
      </trkpt>
      <trkpt lat="41.70037" lon="9.06256">
        <ele>432.4</ele>
        <time>2024-08-05T12:43:56Z</time>
      </trkpt>
      <trkpt lat="41.70046" lon="9.06255">
        <ele>431.8</ele>
        <time>2024-08-05T12:44:06Z</time>
      </trkpt>
      <trkpt lat="41.70057" lon="9.06249">
        <ele>431.8</ele>
        <time>2024-08-05T12:44:19Z</time>
      </trkpt>
      <trkpt lat="41.70068" lon="9.06245">
        <ele>431.6</ele>
        <time>2024-08-05T12:44:31Z</time>
      </trkpt>
      <trkpt lat="41.70071" lon="9.06243">
        <ele>431.6</ele>
        <time>2024-08-05T12:44:35Z</time>
      </trkpt>
      <trkpt lat="41.70085" lon="9.06238">
        <ele>431.2</ele>
        <time>2024-08-05T12:44:50Z</time>
      </trkpt>
      <trkpt lat="41.70094" lon="9.06236">
        <ele>431</ele>
        <time>2024-08-05T12:45:04Z</time>
      </trkpt>
      <trkpt lat="41.70099" lon="9.06237">
        <ele>430.8</ele>
        <time>2024-08-05T12:45:16Z</time>
      </trkpt>
      <trkpt lat="41.70104" lon="9.06236">
        <ele>431.4</ele>
        <time>2024-08-05T12:45:29Z</time>
      </trkpt>
      <trkpt lat="41.70105" lon="9.06235">
        <ele>431.6</ele>
        <time>2024-08-05T12:45:45Z</time>
      </trkpt>
      <trkpt lat="41.70111" lon="9.06237">
        <ele>430.6</ele>
        <time>2024-08-05T12:45:57Z</time>
      </trkpt>
      <trkpt lat="41.70114" lon="9.06237">
        <ele>430.6</ele>
        <time>2024-08-05T12:46:00Z</time>
      </trkpt>
      <trkpt lat="41.70123" lon="9.06236">
        <ele>430.2</ele>
        <time>2024-08-05T12:46:10Z</time>
      </trkpt>
      <trkpt lat="41.70124" lon="9.06235">
        <ele>430.2</ele>
        <time>2024-08-05T12:46:12Z</time>
      </trkpt>
      <trkpt lat="41.70131" lon="9.06232">
        <ele>430</ele>
        <time>2024-08-05T12:46:22Z</time>
      </trkpt>
      <trkpt lat="41.70134" lon="9.06224">
        <ele>429.4</ele>
        <time>2024-08-05T12:46:32Z</time>
      </trkpt>
      <trkpt lat="41.70134" lon="9.06224">
        <ele>429.8</ele>
        <time>2024-08-05T12:46:34Z</time>
      </trkpt>
      <trkpt lat="41.70134" lon="9.06225">
        <ele>429.6</ele>
        <time>2024-08-05T12:46:46Z</time>
      </trkpt>
      <trkpt lat="41.70134" lon="9.06228">
        <ele>429.6</ele>
        <time>2024-08-05T12:47:01Z</time>
      </trkpt>
      <trkpt lat="41.70126" lon="9.06235">
        <ele>430</ele>
        <time>2024-08-05T12:47:13Z</time>
      </trkpt>
      <trkpt lat="41.70125" lon="9.06236">
        <ele>430</ele>
        <time>2024-08-05T12:47:14Z</time>
      </trkpt>
      <trkpt lat="41.70113" lon="9.06239">
        <ele>430.2</ele>
        <time>2024-08-05T12:47:27Z</time>
      </trkpt>
      <trkpt lat="41.70112" lon="9.06238">
        <ele>430.4</ele>
        <time>2024-08-05T12:47:28Z</time>
      </trkpt>
      <trkpt lat="41.70106" lon="9.06236">
        <ele>430.4</ele>
        <time>2024-08-05T12:47:36Z</time>
      </trkpt>
      <trkpt lat="41.70104" lon="9.06236">
        <ele>430.6</ele>
        <time>2024-08-05T12:47:41Z</time>
      </trkpt>
      <trkpt lat="41.70099" lon="9.06237">
        <ele>431</ele>
        <time>2024-08-05T12:47:56Z</time>
      </trkpt>
      <trkpt lat="41.70086" lon="9.06239">
        <ele>431</ele>
        <time>2024-08-05T12:48:09Z</time>
      </trkpt>
      <trkpt lat="41.70077" lon="9.06244">
        <ele>431.6</ele>
        <time>2024-08-05T12:48:17Z</time>
      </trkpt>
      <trkpt lat="41.7007" lon="9.06247">
        <ele>431.8</ele>
        <time>2024-08-05T12:48:23Z</time>
      </trkpt>
      <trkpt lat="41.70053" lon="9.06254">
        <ele>432</ele>
        <time>2024-08-05T12:48:38Z</time>
      </trkpt>
      <trkpt lat="41.70037" lon="9.0626">
        <ele>432.4</ele>
        <time>2024-08-05T12:48:54Z</time>
      </trkpt>
      <trkpt lat="41.7003" lon="9.06267">
        <ele>432.4</ele>
        <time>2024-08-05T12:49:05Z</time>
      </trkpt>
      <trkpt lat="41.70028" lon="9.06269">
        <ele>432.6</ele>
        <time>2024-08-05T12:49:07Z</time>
      </trkpt>
      <trkpt lat="41.70017" lon="9.06274">
        <ele>432.6</ele>
        <time>2024-08-05T12:49:20Z</time>
      </trkpt>
      <trkpt lat="41.70015" lon="9.06277">
        <ele>433</ele>
        <time>2024-08-05T12:49:24Z</time>
      </trkpt>
      <trkpt lat="41.70014" lon="9.06278">
        <ele>433.2</ele>
        <time>2024-08-05T12:49:26Z</time>
      </trkpt>
      <trkpt lat="41.70012" lon="9.0628">
        <ele>433.4</ele>
        <time>2024-08-05T12:49:28Z</time>
      </trkpt>
      <trkpt lat="41.7001" lon="9.06283">
        <ele>433.4</ele>
        <time>2024-08-05T12:49:30Z</time>
      </trkpt>
      <trkpt lat="41.70002" lon="9.06294">
        <ele>433.6</ele>
        <time>2024-08-05T12:49:44Z</time>
      </trkpt>
      <trkpt lat="41.70001" lon="9.06298">
        <ele>433.6</ele>
        <time>2024-08-05T12:49:47Z</time>
      </trkpt>
      <trkpt lat="41.70003" lon="9.06312">
        <ele>434</ele>
        <time>2024-08-05T12:49:57Z</time>
      </trkpt>
      <trkpt lat="41.70004" lon="9.06313">
        <ele>434</ele>
        <time>2024-08-05T12:49:58Z</time>
      </trkpt>
      <trkpt lat="41.7001" lon="9.06333">
        <ele>434.4</ele>
        <time>2024-08-05T12:50:13Z</time>
      </trkpt>
      <trkpt lat="41.70012" lon="9.06337">
        <ele>434.6</ele>
        <time>2024-08-05T12:50:16Z</time>
      </trkpt>
      <trkpt lat="41.7002" lon="9.06352">
        <ele>435.2</ele>
        <time>2024-08-05T12:50:28Z</time>
      </trkpt>
      <trkpt lat="41.70028" lon="9.06361">
        <ele>435</ele>
        <time>2024-08-05T12:50:40Z</time>
      </trkpt>
      <trkpt lat="41.70029" lon="9.06361">
        <ele>435</ele>
        <time>2024-08-05T12:50:43Z</time>
      </trkpt>
      <trkpt lat="41.7003" lon="9.06362">
        <ele>435.6</ele>
        <time>2024-08-05T12:50:51Z</time>
      </trkpt>
      <trkpt lat="41.70029" lon="9.06363">
        <ele>436</ele>
        <time>2024-08-05T12:50:57Z</time>
      </trkpt>
      <trkpt lat="41.7003" lon="9.06367">
        <ele>436</ele>
        <time>2024-08-05T12:51:07Z</time>
      </trkpt>
      <trkpt lat="41.70032" lon="9.06373">
        <ele>435.6</ele>
        <time>2024-08-05T12:51:19Z</time>
      </trkpt>
      <trkpt lat="41.70034" lon="9.06378">
        <ele>435.6</ele>
        <time>2024-08-05T12:51:23Z</time>
      </trkpt>
      <trkpt lat="41.70036" lon="9.06394">
        <ele>435.8</ele>
        <time>2024-08-05T12:51:32Z</time>
      </trkpt>
      <trkpt lat="41.70038" lon="9.06407">
        <ele>435.8</ele>
        <time>2024-08-05T12:51:43Z</time>
      </trkpt>
      <trkpt lat="41.70028" lon="9.06421">
        <ele>436.2</ele>
        <time>2024-08-05T12:51:56Z</time>
      </trkpt>
      <trkpt lat="41.70025" lon="9.06422">
        <ele>436.2</ele>
        <time>2024-08-05T12:51:58Z</time>
      </trkpt>
      <trkpt lat="41.70011" lon="9.06425">
        <ele>436.6</ele>
        <time>2024-08-05T12:52:09Z</time>
      </trkpt>
      <trkpt lat="41.7" lon="9.06423">
        <ele>436.6</ele>
        <time>2024-08-05T12:52:21Z</time>
      </trkpt>
      <trkpt lat="41.69998" lon="9.06422">
        <ele>436.8</ele>
        <time>2024-08-05T12:52:23Z</time>
      </trkpt>
      <trkpt lat="41.69986" lon="9.06419">
        <ele>436.8</ele>
        <time>2024-08-05T12:52:37Z</time>
      </trkpt>
      <trkpt lat="41.69974" lon="9.06413">
        <ele>437.4</ele>
        <time>2024-08-05T12:52:52Z</time>
      </trkpt>
      <trkpt lat="41.69956" lon="9.06406">
        <ele>437.4</ele>
        <time>2024-08-05T12:53:06Z</time>
      </trkpt>
      <trkpt lat="41.69944" lon="9.06401">
        <ele>437.6</ele>
        <time>2024-08-05T12:53:20Z</time>
      </trkpt>
      <trkpt lat="41.69938" lon="9.064">
        <ele>437.8</ele>
        <time>2024-08-05T12:53:26Z</time>
      </trkpt>
      <trkpt lat="41.69929" lon="9.064">
        <ele>438</ele>
        <time>2024-08-05T12:53:34Z</time>
      </trkpt>
      <trkpt lat="41.69913" lon="9.064">
        <ele>438.4</ele>
        <time>2024-08-05T12:53:49Z</time>
      </trkpt>
      <trkpt lat="41.69898" lon="9.06399">
        <ele>438.6</ele>
        <time>2024-08-05T12:54:03Z</time>
      </trkpt>
      <trkpt lat="41.69893" lon="9.06399">
        <ele>438.8</ele>
        <time>2024-08-05T12:54:08Z</time>
      </trkpt>
      <trkpt lat="41.69881" lon="9.06401">
        <ele>439</ele>
        <time>2024-08-05T12:54:18Z</time>
      </trkpt>
      <trkpt lat="41.69863" lon="9.06405">
        <ele>438.8</ele>
        <time>2024-08-05T12:54:34Z</time>
      </trkpt>
      <trkpt lat="41.69862" lon="9.06405">
        <ele>438.8</ele>
        <time>2024-08-05T12:54:35Z</time>
      </trkpt>
      <trkpt lat="41.69844" lon="9.06403">
        <ele>438.8</ele>
        <time>2024-08-05T12:54:50Z</time>
      </trkpt>
      <trkpt lat="41.69842" lon="9.06405">
        <ele>438.8</ele>
        <time>2024-08-05T12:54:53Z</time>
      </trkpt>
      <trkpt lat="41.69841" lon="9.06408">
        <ele>438.8</ele>
        <time>2024-08-05T12:54:59Z</time>
      </trkpt>
      <trkpt lat="41.69832" lon="9.06405">
        <ele>438.8</ele>
        <time>2024-08-05T12:55:09Z</time>
      </trkpt>
      <trkpt lat="41.6983" lon="9.06404">
        <ele>438.8</ele>
        <time>2024-08-05T12:55:10Z</time>
      </trkpt>
      <trkpt lat="41.69819" lon="9.06402">
        <ele>439</ele>
        <time>2024-08-05T12:55:26Z</time>
      </trkpt>
      <trkpt lat="41.69809" lon="9.06401">
        <ele>438.8</ele>
        <time>2024-08-05T12:55:41Z</time>
      </trkpt>
      <trkpt lat="41.69801" lon="9.06402">
        <ele>439.2</ele>
        <time>2024-08-05T12:55:50Z</time>
      </trkpt>
      <trkpt lat="41.69796" lon="9.06404">
        <ele>439.2</ele>
        <time>2024-08-05T12:55:59Z</time>
      </trkpt>
      <trkpt lat="41.69787" lon="9.06409">
        <ele>439.4</ele>
        <time>2024-08-05T12:56:15Z</time>
      </trkpt>
      <trkpt lat="41.69785" lon="9.06409">
        <ele>439.4</ele>
        <time>2024-08-05T12:56:18Z</time>
      </trkpt>
      <trkpt lat="41.69782" lon="9.06408">
        <ele>439.4</ele>
        <time>2024-08-05T12:56:20Z</time>
      </trkpt>
      <trkpt lat="41.69774" lon="9.06408">
        <ele>439.6</ele>
        <time>2024-08-05T12:56:33Z</time>
      </trkpt>
      <trkpt lat="41.69773" lon="9.06408">
        <ele>439.8</ele>
        <time>2024-08-05T12:56:34Z</time>
      </trkpt>
      <trkpt lat="41.69767" lon="9.06419">
        <ele>440.2</ele>
        <time>2024-08-05T12:56:50Z</time>
      </trkpt>
      <trkpt lat="41.6977" lon="9.06425">
        <ele>440.8</ele>
        <time>2024-08-05T12:56:55Z</time>
      </trkpt>
      <trkpt lat="41.6977" lon="9.06426">
        <ele>440.8</ele>
        <time>2024-08-05T12:56:56Z</time>
      </trkpt>
      <trkpt lat="41.69768" lon="9.06433">
        <ele>441</ele>
        <time>2024-08-05T12:57:00Z</time>
      </trkpt>
      <trkpt lat="41.69768" lon="9.06434">
        <ele>441</ele>
        <time>2024-08-05T12:57:01Z</time>
      </trkpt>
      <trkpt lat="41.69769" lon="9.06443">
        <ele>441.4</ele>
        <time>2024-08-05T12:57:06Z</time>
      </trkpt>
      <trkpt lat="41.6977" lon="9.06447">
        <ele>441.8</ele>
        <time>2024-08-05T12:57:12Z</time>
      </trkpt>
      <trkpt lat="41.69768" lon="9.06449">
        <ele>442</ele>
        <time>2024-08-05T12:57:15Z</time>
      </trkpt>
      <trkpt lat="41.69766" lon="9.06451">
        <ele>442.2</ele>
        <time>2024-08-05T12:57:18Z</time>
      </trkpt>
      <trkpt lat="41.69762" lon="9.06454">
        <ele>442.6</ele>
        <time>2024-08-05T12:57:26Z</time>
      </trkpt>
      <trkpt lat="41.69763" lon="9.06458">
        <ele>442.8</ele>
        <time>2024-08-05T12:57:31Z</time>
      </trkpt>
      <trkpt lat="41.69765" lon="9.06464">
        <ele>443.6</ele>
        <time>2024-08-05T12:57:36Z</time>
      </trkpt>
      <trkpt lat="41.69765" lon="9.06466">
        <ele>444</ele>
        <time>2024-08-05T12:57:38Z</time>
      </trkpt>
      <trkpt lat="41.69765" lon="9.06467">
        <ele>444.8</ele>
        <time>2024-08-05T12:57:47Z</time>
      </trkpt>
      <trkpt lat="41.69766" lon="9.06464">
        <ele>444.2</ele>
        <time>2024-08-05T12:58:00Z</time>
      </trkpt>
      <trkpt lat="41.69763" lon="9.06457">
        <ele>443.4</ele>
        <time>2024-08-05T12:58:05Z</time>
      </trkpt>
      <trkpt lat="41.69758" lon="9.06455">
        <ele>443</ele>
        <time>2024-08-05T12:58:11Z</time>
      </trkpt>
      <trkpt lat="41.69758" lon="9.06454">
        <ele>443</ele>
        <time>2024-08-05T12:58:13Z</time>
      </trkpt>
      <trkpt lat="41.69754" lon="9.06459">
        <ele>443</ele>
        <time>2024-08-05T12:58:21Z</time>
      </trkpt>
      <trkpt lat="41.69751" lon="9.06463">
        <ele>443.2</ele>
        <time>2024-08-05T12:58:25Z</time>
      </trkpt>
      <trkpt lat="41.69749" lon="9.06469">
        <ele>443.4</ele>
        <time>2024-08-05T12:58:29Z</time>
      </trkpt>
      <trkpt lat="41.69748" lon="9.06474">
        <ele>444</ele>
        <time>2024-08-05T12:58:32Z</time>
      </trkpt>
      <trkpt lat="41.69748" lon="9.06477">
        <ele>444</ele>
        <time>2024-08-05T12:58:34Z</time>
      </trkpt>
      <trkpt lat="41.69738" lon="9.06493">
        <ele>445</ele>
        <time>2024-08-05T12:58:50Z</time>
      </trkpt>
      <trkpt lat="41.6973" lon="9.06502">
        <ele>445.6</ele>
        <time>2024-08-05T12:59:03Z</time>
      </trkpt>
      <trkpt lat="41.69722" lon="9.06509">
        <ele>446</ele>
        <time>2024-08-05T12:59:13Z</time>
      </trkpt>
      <trkpt lat="41.6972" lon="9.06513">
        <ele>446.2</ele>
        <time>2024-08-05T12:59:18Z</time>
      </trkpt>
      <trkpt lat="41.6972" lon="9.06513">
        <ele>446.2</ele>
        <time>2024-08-05T12:59:20Z</time>
      </trkpt>
      <trkpt lat="41.69719" lon="9.06516">
        <ele>446.6</ele>
        <time>2024-08-05T12:59:26Z</time>
      </trkpt>
      <trkpt lat="41.69706" lon="9.06522">
        <ele>447</ele>
        <time>2024-08-05T12:59:38Z</time>
      </trkpt>
      <trkpt lat="41.69699" lon="9.06534">
        <ele>448</ele>
        <time>2024-08-05T12:59:49Z</time>
      </trkpt>
      <trkpt lat="41.69696" lon="9.06543">
        <ele>448</ele>
        <time>2024-08-05T12:59:55Z</time>
      </trkpt>
      <trkpt lat="41.69691" lon="9.06552">
        <ele>449</ele>
        <time>2024-08-05T13:00:03Z</time>
      </trkpt>
      <trkpt lat="41.6969" lon="9.06555">
        <ele>449</ele>
        <time>2024-08-05T13:00:06Z</time>
      </trkpt>
      <trkpt lat="41.69684" lon="9.06561">
        <ele>449.4</ele>
        <time>2024-08-05T13:00:16Z</time>
      </trkpt>
      <trkpt lat="41.69684" lon="9.06562">
        <ele>449.4</ele>
        <time>2024-08-05T13:00:17Z</time>
      </trkpt>
      <trkpt lat="41.69676" lon="9.0657">
        <ele>449.8</ele>
        <time>2024-08-05T13:00:29Z</time>
      </trkpt>
      <trkpt lat="41.69674" lon="9.06573">
        <ele>450</ele>
        <time>2024-08-05T13:00:32Z</time>
      </trkpt>
      <trkpt lat="41.69669" lon="9.0658">
        <ele>450.6</ele>
        <time>2024-08-05T13:00:42Z</time>
      </trkpt>
      <trkpt lat="41.69663" lon="9.06589">
        <ele>450.8</ele>
        <time>2024-08-05T13:00:55Z</time>
      </trkpt>
      <trkpt lat="41.6966" lon="9.06592">
        <ele>451</ele>
        <time>2024-08-05T13:01:04Z</time>
      </trkpt>
      <trkpt lat="41.69659" lon="9.06593">
        <ele>451</ele>
        <time>2024-08-05T13:01:05Z</time>
      </trkpt>
      <trkpt lat="41.69649" lon="9.06606">
        <ele>452.2</ele>
        <time>2024-08-05T13:01:19Z</time>
      </trkpt>
      <trkpt lat="41.69637" lon="9.06615">
        <ele>453.2</ele>
        <time>2024-08-05T13:01:34Z</time>
      </trkpt>
      <trkpt lat="41.69622" lon="9.06628">
        <ele>453.8</ele>
        <time>2024-08-05T13:01:49Z</time>
      </trkpt>
      <trkpt lat="41.69622" lon="9.06629">
        <ele>454</ele>
        <time>2024-08-05T13:01:50Z</time>
      </trkpt>
      <trkpt lat="41.6962" lon="9.06631">
        <ele>454.2</ele>
        <time>2024-08-05T13:01:53Z</time>
      </trkpt>
      <trkpt lat="41.69612" lon="9.06642">
        <ele>455.2</ele>
        <time>2024-08-05T13:02:06Z</time>
      </trkpt>
      <trkpt lat="41.69611" lon="9.06643">
        <ele>455.4</ele>
        <time>2024-08-05T13:02:07Z</time>
      </trkpt>
      <trkpt lat="41.696" lon="9.06652">
        <ele>456</ele>
        <time>2024-08-05T13:02:21Z</time>
      </trkpt>
      <trkpt lat="41.69596" lon="9.06656">
        <ele>456.4</ele>
        <time>2024-08-05T13:02:27Z</time>
      </trkpt>
      <trkpt lat="41.6959" lon="9.0666">
        <ele>457</ele>
        <time>2024-08-05T13:02:36Z</time>
      </trkpt>
      <trkpt lat="41.6959" lon="9.06661">
        <ele>457.2</ele>
        <time>2024-08-05T13:02:39Z</time>
      </trkpt>
      <trkpt lat="41.69591" lon="9.06662">
        <ele>457.4</ele>
        <time>2024-08-05T13:02:47Z</time>
      </trkpt>
      <trkpt lat="41.69592" lon="9.06653">
        <ele>457.4</ele>
        <time>2024-08-05T13:02:58Z</time>
      </trkpt>
      <trkpt lat="41.69587" lon="9.06657">
        <ele>457.8</ele>
        <time>2024-08-05T13:03:03Z</time>
      </trkpt>
      <trkpt lat="41.69584" lon="9.06659">
        <ele>458</ele>
        <time>2024-08-05T13:03:06Z</time>
      </trkpt>
      <trkpt lat="41.69583" lon="9.06659">
        <ele>458</ele>
        <time>2024-08-05T13:03:07Z</time>
      </trkpt>
      <trkpt lat="41.69581" lon="9.06659">
        <ele>458.6</ele>
        <time>2024-08-05T13:03:12Z</time>
      </trkpt>
      <trkpt lat="41.69579" lon="9.06656">
        <ele>459</ele>
        <time>2024-08-05T13:03:18Z</time>
      </trkpt>
      <trkpt lat="41.69577" lon="9.06662">
        <ele>459.4</ele>
        <time>2024-08-05T13:03:27Z</time>
      </trkpt>
      <trkpt lat="41.69577" lon="9.06663">
        <ele>459.6</ele>
        <time>2024-08-05T13:03:30Z</time>
      </trkpt>
      <trkpt lat="41.69577" lon="9.06663">
        <ele>458.6</ele>
        <time>2024-08-05T13:03:39Z</time>
      </trkpt>
      <trkpt lat="41.69576" lon="9.06661">
        <ele>458.4</ele>
        <time>2024-08-05T13:03:50Z</time>
      </trkpt>
      <trkpt lat="41.69578" lon="9.06662">
        <ele>458.8</ele>
        <time>2024-08-05T13:04:01Z</time>
      </trkpt>
      <trkpt lat="41.69578" lon="9.06662">
        <ele>458.4</ele>
        <time>2024-08-05T13:04:05Z</time>
      </trkpt>
    </trkseg>
  </trk>
</gpx>